<?xml version="1.0" encoding="UTF-8" ?>
<gpx version="1.1" creator="CartoExploreur 3 3.24" xmlns:xsi="http://www.w3.org/2001/XMLSchema-instance" xmlns="http://www.topografix.com/GPX/1/1" xsi:schemaLocation="http://www.topografix.com/GPX/1/1 http://www.topografix.com/GPX/1/1/gpx.xsd">
    <metadata>
        <time>2017-12-04T21:31:56Z</time>
        <bounds maxlat="47.227434727" maxlon="4.971267460" minlat="47.216632564" minlon="4.926087493" />
    </metadata>
    <trk>
        <name>Bernard Quarteaux</name>
        <trkseg>
            <trkpt lat="47.225910863" lon="4.971267460">
                <ele>273.658142</ele>
                <time>2017-03-21T07:53:09Z</time>
            </trkpt>
            <trkpt lat="47.225906513" lon="4.971151716">
                <ele>273.987640</ele>
                <time>2017-03-21T07:53:10Z</time>
            </trkpt>
            <trkpt lat="47.225893046" lon="4.971002412">
                <ele>274.410370</ele>
                <time>2017-03-21T07:53:15Z</time>
            </trkpt>
            <trkpt lat="47.225895683" lon="4.970886932">
                <ele>274.721863</ele>
                <time>2017-03-21T07:53:30Z</time>
            </trkpt>
            <trkpt lat="47.225888212" lon="4.970721408">
                <ele>275.093750</ele>
                <time>2017-03-21T07:53:42Z</time>
            </trkpt>
            <trkpt lat="47.225887489" lon="4.970506668">
                <ele>275.418762</ele>
                <time>2017-03-21T07:53:55Z</time>
            </trkpt>
            <trkpt lat="47.225880394" lon="4.970324647">
                <ele>275.693756</ele>
                <time>2017-03-21T07:53:56Z</time>
            </trkpt>
            <trkpt lat="47.225878729" lon="4.970151151">
                <ele>275.956238</ele>
                <time>2017-03-21T07:54:03Z</time>
            </trkpt>
            <trkpt lat="47.225904595" lon="4.970003782">
                <ele>276.362488</ele>
                <time>2017-03-21T07:54:15Z</time>
            </trkpt>
            <trkpt lat="47.225947695" lon="4.969840745">
                <ele>276.862488</ele>
                <time>2017-03-21T07:54:18Z</time>
            </trkpt>
            <trkpt lat="47.225980309" lon="4.969644161">
                <ele>277.462494</ele>
                <time>2017-03-21T07:54:38Z</time>
            </trkpt>
            <trkpt lat="47.225985580" lon="4.969413200">
                <ele>278.081238</ele>
                <time>2017-03-21T07:54:52Z</time>
            </trkpt>
            <trkpt lat="47.225989533" lon="4.969239980">
                <ele>278.343750</ele>
                <time>2017-03-21T07:55:04Z</time>
            </trkpt>
            <trkpt lat="47.225983941" lon="4.968991969">
                <ele>278.718750</ele>
                <time>2017-03-21T07:55:19Z</time>
            </trkpt>
            <trkpt lat="47.225983404" lon="4.968768981">
                <ele>279.007324</ele>
                <time>2017-03-21T07:55:32Z</time>
            </trkpt>
            <trkpt lat="47.225982678" lon="4.968554241">
                <ele>279.055267</ele>
                <time>2017-03-21T07:55:51Z</time>
            </trkpt>
            <trkpt lat="47.225982140" lon="4.968331253">
                <ele>279.111420</ele>
                <time>2017-03-21T07:56:07Z</time>
            </trkpt>
            <trkpt lat="47.225974665" lon="4.968165729">
                <ele>279.174377</ele>
                <time>2017-03-21T07:56:20Z</time>
            </trkpt>
            <trkpt lat="47.225973750" lon="4.967959238">
                <ele>279.476257</ele>
                <time>2017-03-21T07:56:24Z</time>
            </trkpt>
            <trkpt lat="47.225872606" lon="4.967954266">
                <ele>279.701263</ele>
                <time>2017-03-21T07:56:37Z</time>
            </trkpt>
            <trkpt lat="47.225764526" lon="4.968006759">
                <ele>279.848755</ele>
                <time>2017-03-21T07:56:51Z</time>
            </trkpt>
            <trkpt lat="47.225684917" lon="4.968044135">
                <ele>279.961243</ele>
                <time>2017-03-21T07:56:53Z</time>
            </trkpt>
            <trkpt lat="47.225578343" lon="4.968030639">
                <ele>280.153809</ele>
                <time>2017-03-21T07:57:04Z</time>
            </trkpt>
            <trkpt lat="47.225466525" lon="4.968000369">
                <ele>280.239258</ele>
                <time>2017-03-21T07:57:08Z</time>
            </trkpt>
            <trkpt lat="47.225326800" lon="4.967960470">
                <ele>280.376923</ele>
                <time>2017-03-21T07:57:27Z</time>
            </trkpt>
            <trkpt lat="47.225233018" lon="4.967929032">
                <ele>280.499115</ele>
                <time>2017-03-21T07:57:35Z</time>
            </trkpt>
            <trkpt lat="47.225148118" lon="4.967902142">
                <ele>280.633301</ele>
                <time>2017-03-21T07:57:51Z</time>
            </trkpt>
            <trkpt lat="47.225064207" lon="4.967881502">
                <ele>280.809631</ele>
                <time>2017-03-21T07:57:54Z</time>
            </trkpt>
            <trkpt lat="47.224974678" lon="4.967860587">
                <ele>280.982880</ele>
                <time>2017-03-21T07:57:58Z</time>
            </trkpt>
            <trkpt lat="47.224885148" lon="4.967839671">
                <ele>281.146118</ele>
                <time>2017-03-21T07:58:01Z</time>
            </trkpt>
            <trkpt lat="47.224779138" lon="4.967801430">
                <ele>281.348785</ele>
                <time>2017-03-21T07:58:11Z</time>
            </trkpt>
            <trkpt lat="47.224706842" lon="4.967764846">
                <ele>281.461243</ele>
                <time>2017-03-21T07:58:15Z</time>
            </trkpt>
            <trkpt lat="47.224612634" lon="4.967702413">
                <ele>281.338745</ele>
                <time>2017-03-21T07:58:17Z</time>
            </trkpt>
            <trkpt lat="47.224517674" lon="4.967672973">
                <ele>281.161255</ele>
                <time>2017-03-21T07:58:25Z</time>
            </trkpt>
            <trkpt lat="47.224401366" lon="4.967592939">
                <ele>281.013763</ele>
                <time>2017-03-21T07:58:41Z</time>
            </trkpt>
            <trkpt lat="47.224312024" lon="4.967563776">
                <ele>280.851257</ele>
                <time>2017-03-21T07:58:54Z</time>
            </trkpt>
            <trkpt lat="47.224245348" lon="4.967527469">
                <ele>280.806244</ele>
                <time>2017-03-21T07:59:18Z</time>
            </trkpt>
            <trkpt lat="47.224157788" lon="4.967484288">
                <ele>280.864990</ele>
                <time>2017-03-21T07:59:21Z</time>
            </trkpt>
            <trkpt lat="47.224081265" lon="4.967568951">
                <ele>280.731262</ele>
                <time>2017-03-21T07:59:31Z</time>
            </trkpt>
            <trkpt lat="47.224060833" lon="4.967724840">
                <ele>280.493744</ele>
                <time>2017-03-21T07:59:38Z</time>
            </trkpt>
            <trkpt lat="47.223995825" lon="4.967862023">
                <ele>280.281250</ele>
                <time>2017-03-21T08:00:50Z</time>
            </trkpt>
            <trkpt lat="47.223946382" lon="4.967810048">
                <ele>280.356262</ele>
                <time>2017-03-21T08:01:03Z</time>
            </trkpt>
            <trkpt lat="47.223855788" lon="4.967719149">
                <ele>280.486237</ele>
                <time>2017-03-21T08:01:17Z</time>
            </trkpt>
            <trkpt lat="47.223759094" lon="4.967635693">
                <ele>280.476257</ele>
                <time>2017-03-21T08:01:24Z</time>
            </trkpt>
            <trkpt lat="47.223665639" lon="4.967540268">
                <ele>280.398743</ele>
                <time>2017-03-21T08:01:26Z</time>
            </trkpt>
            <trkpt lat="47.223555702" lon="4.967427519">
                <ele>280.311249</ele>
                <time>2017-03-21T08:01:40Z</time>
            </trkpt>
            <trkpt lat="47.223456815" lon="4.967323570">
                <ele>280.179993</ele>
                <time>2017-03-21T08:01:45Z</time>
            </trkpt>
            <trkpt lat="47.223341071" lon="4.967218794">
                <ele>279.936493</ele>
                <time>2017-03-21T08:02:00Z</time>
            </trkpt>
            <trkpt lat="47.223241996" lon="4.967123094">
                <ele>279.799835</ele>
                <time>2017-03-21T08:02:04Z</time>
            </trkpt>
            <trkpt lat="47.223142357" lon="4.967052139">
                <ele>279.705200</ele>
                <time>2017-03-21T08:02:07Z</time>
            </trkpt>
            <trkpt lat="47.223026613" lon="4.966947364">
                <ele>279.677032</ele>
                <time>2017-03-21T08:02:21Z</time>
            </trkpt>
            <trkpt lat="47.222899442" lon="4.966850285">
                <ele>279.986755</ele>
                <time>2017-03-21T08:02:40Z</time>
            </trkpt>
            <trkpt lat="47.222777702" lon="4.966761731">
                <ele>281.123169</ele>
                <time>2017-03-21T08:02:54Z</time>
            </trkpt>
            <trkpt lat="47.222674945" lon="4.966670740">
                <ele>282.321899</ele>
                <time>2017-03-21T08:03:12Z</time>
            </trkpt>
            <trkpt lat="47.222568125" lon="4.966578031">
                <ele>283.557495</ele>
                <time>2017-03-21T08:03:16Z</time>
            </trkpt>
            <trkpt lat="47.222464560" lon="4.966462702">
                <ele>284.709991</ele>
                <time>2017-03-21T08:03:32Z</time>
            </trkpt>
            <trkpt lat="47.222353492" lon="4.966369314">
                <ele>285.477509</ele>
                <time>2017-03-21T08:03:44Z</time>
            </trkpt>
            <trkpt lat="47.222247301" lon="4.966259692">
                <ele>286.272491</ele>
                <time>2017-03-21T08:03:51Z</time>
            </trkpt>
            <trkpt lat="47.222143915" lon="4.966185617">
                <ele>286.952484</ele>
                <time>2017-03-21T08:03:57Z</time>
            </trkpt>
            <trkpt lat="47.222042195" lon="4.966070848">
                <ele>287.741180</ele>
                <time>2017-03-21T08:04:13Z</time>
            </trkpt>
            <trkpt lat="47.221962567" lon="4.965965487">
                <ele>288.420013</ele>
                <time>2017-03-21T08:04:27Z</time>
            </trkpt>
            <trkpt lat="47.221920487" lon="4.965869127">
                <ele>288.985199</ele>
                <time>2017-03-21T08:04:42Z</time>
            </trkpt>
            <trkpt lat="47.221884537" lon="4.965718732">
                <ele>289.818817</ele>
                <time>2017-03-21T08:04:43Z</time>
            </trkpt>
            <trkpt lat="47.221839605" lon="4.965553936">
                <ele>290.845001</ele>
                <time>2017-03-21T08:05:03Z</time>
            </trkpt>
            <trkpt lat="47.221785105" lon="4.965391819">
                <ele>292.051361</ele>
                <time>2017-03-21T08:05:24Z</time>
            </trkpt>
            <trkpt lat="47.221717131" lon="4.965165537">
                <ele>293.761230</ele>
            </trkpt>
            <trkpt lat="47.221654365" lon="4.964953708">
                <ele>295.306244</ele>
                <time>2017-03-21T08:05:41Z</time>
            </trkpt>
            <trkpt lat="47.221588148" lon="4.964702083">
                <ele>296.760010</ele>
                <time>2017-03-21T08:05:57Z</time>
            </trkpt>
            <trkpt lat="47.221529689" lon="4.964504020">
                <ele>298.465729</ele>
                <time>2017-03-21T08:06:16Z</time>
            </trkpt>
            <trkpt lat="47.221478261" lon="4.964312157">
                <ele>300.693909</ele>
                <time>2017-03-21T08:06:24Z</time>
            </trkpt>
            <trkpt lat="47.221439620" lon="4.964121552">
                <ele>303.038971</ele>
                <time>2017-03-21T08:06:37Z</time>
            </trkpt>
            <trkpt lat="47.221375331" lon="4.963886105">
                <ele>306.334686</ele>
                <time>2017-03-21T08:06:54Z</time>
            </trkpt>
            <trkpt lat="47.221328015" lon="4.963726210">
                <ele>308.604675</ele>
                <time>2017-03-21T08:07:11Z</time>
            </trkpt>
            <trkpt lat="47.221252916" lon="4.963565640">
                <ele>310.854401</ele>
                <time>2017-03-21T08:07:14Z</time>
            </trkpt>
            <trkpt lat="47.221272966" lon="4.963426253">
                <ele>312.345795</ele>
            </trkpt>
            <trkpt lat="47.221371497" lon="4.963298974">
                <ele>313.604767</ele>
                <time>2017-03-21T08:07:31Z</time>
            </trkpt>
            <trkpt lat="47.221469463" lon="4.963196437">
                <ele>314.521576</ele>
                <time>2017-03-21T08:07:46Z</time>
            </trkpt>
            <trkpt lat="47.221556755" lon="4.963068605">
                <ele>315.574188</ele>
                <time>2017-03-21T08:08:09Z</time>
            </trkpt>
            <trkpt lat="47.221661091" lon="4.962933352">
                <ele>316.476624</ele>
                <time>2017-03-21T08:08:24Z</time>
            </trkpt>
            <trkpt lat="47.221731338" lon="4.962812940">
                <ele>316.998993</ele>
                <time>2017-03-21T08:08:35Z</time>
            </trkpt>
            <trkpt lat="47.221808329" lon="4.962643316">
                <ele>318.057007</ele>
                <time>2017-03-21T08:08:56Z</time>
            </trkpt>
            <trkpt lat="47.221891315" lon="4.962457471">
                <ele>319.963806</ele>
            </trkpt>
            <trkpt lat="47.221956881" lon="4.962295542">
                <ele>321.520569</ele>
                <time>2017-03-21T08:09:21Z</time>
            </trkpt>
            <trkpt lat="47.222015888" lon="4.962174578">
                <ele>322.486511</ele>
                <time>2017-03-21T08:09:42Z</time>
            </trkpt>
            <trkpt lat="47.222090894" lon="4.961993136">
                <ele>324.037964</ele>
                <time>2017-03-21T08:10:03Z</time>
            </trkpt>
            <trkpt lat="47.222115367" lon="4.961758338">
                <ele>328.085510</ele>
                <time>2017-03-21T08:10:21Z</time>
            </trkpt>
            <trkpt lat="47.222221820" lon="4.961545710">
                <ele>329.550903</ele>
                <time>2017-03-21T08:10:39Z</time>
            </trkpt>
            <trkpt lat="47.222346626" lon="4.961323757">
                <ele>330.298859</ele>
                <time>2017-03-21T08:10:57Z</time>
            </trkpt>
            <trkpt lat="47.222438495" lon="4.961154886">
                <ele>330.574310</ele>
                <time>2017-03-21T08:11:14Z</time>
            </trkpt>
            <trkpt lat="47.222549387" lon="4.960978662">
                <ele>330.136566</ele>
                <time>2017-03-21T08:11:31Z</time>
            </trkpt>
            <trkpt lat="47.222661217" lon="4.960761196">
                <ele>329.638000</ele>
                <time>2017-03-21T08:11:51Z</time>
            </trkpt>
            <trkpt lat="47.222743637" lon="4.960600089">
                <ele>328.546295</ele>
                <time>2017-03-21T08:12:07Z</time>
            </trkpt>
            <trkpt lat="47.222878505" lon="4.960358979">
                <ele>326.067444</ele>
                <time>2017-03-21T08:12:26Z</time>
            </trkpt>
            <trkpt lat="47.223011497" lon="4.960200350">
                <ele>322.100372</ele>
            </trkpt>
            <trkpt lat="47.223161721" lon="4.960026049">
                <ele>317.642029</ele>
                <time>2017-03-21T08:12:46Z</time>
            </trkpt>
            <trkpt lat="47.223282536" lon="4.959908108">
                <ele>313.605621</ele>
                <time>2017-03-21T08:13:03Z</time>
            </trkpt>
            <trkpt lat="47.223404102" lon="4.959757173">
                <ele>309.408752</ele>
                <time>2017-03-21T08:13:22Z</time>
            </trkpt>
            <trkpt lat="47.223543274" lon="4.959574071">
                <ele>303.840637</ele>
                <time>2017-03-21T08:13:39Z</time>
            </trkpt>
            <trkpt lat="47.223660158" lon="4.959381619">
                <ele>302.665314</ele>
                <time>2017-03-21T08:13:58Z</time>
            </trkpt>
            <trkpt lat="47.223730588" lon="4.959252950">
                <ele>302.234863</ele>
                <time>2017-03-21T08:14:00Z</time>
            </trkpt>
            <trkpt lat="47.223734901" lon="4.959063239">
                <ele>303.482635</ele>
                <time>2017-03-21T08:14:13Z</time>
            </trkpt>
            <trkpt lat="47.223736219" lon="4.958757777">
                <ele>305.438629</ele>
            </trkpt>
            <trkpt lat="47.223730043" lon="4.958534523">
                <ele>305.706818</ele>
            </trkpt>
            <trkpt lat="47.223720672" lon="4.958381793">
                <ele>306.048828</ele>
                <time>2017-03-21T08:14:31Z</time>
            </trkpt>
            <trkpt lat="47.223707093" lon="4.958130587">
                <ele>306.494598</ele>
                <time>2017-03-21T08:14:44Z</time>
            </trkpt>
            <trkpt lat="47.223698773" lon="4.957930198">
                <ele>306.665192</ele>
                <time>2017-03-21T08:14:51Z</time>
            </trkpt>
            <trkpt lat="47.223720085" lon="4.957761196">
                <ele>306.117462</ele>
                <time>2017-03-21T08:15:05Z</time>
            </trkpt>
            <trkpt lat="47.223735508" lon="4.957572520">
                <ele>305.708374</ele>
                <time>2017-03-21T08:15:18Z</time>
            </trkpt>
            <trkpt lat="47.223756470" lon="4.957371515">
                <ele>305.160431</ele>
                <time>2017-03-21T08:15:34Z</time>
            </trkpt>
            <trkpt lat="47.223800676" lon="4.957158985">
                <ele>304.204376</ele>
                <time>2017-03-21T08:15:36Z</time>
            </trkpt>
            <trkpt lat="47.223861739" lon="4.956947279">
                <ele>302.982300</ele>
                <time>2017-03-21T08:15:43Z</time>
            </trkpt>
            <trkpt lat="47.223797869" lon="4.956787261">
                <ele>304.286560</ele>
                <time>2017-03-21T08:15:49Z</time>
            </trkpt>
            <trkpt lat="47.223713128" lon="4.956646236">
                <ele>305.497253</ele>
                <time>2017-03-21T08:16:25Z</time>
            </trkpt>
            <trkpt lat="47.223646156" lon="4.956475915">
                <ele>306.085297</ele>
                <time>2017-03-21T08:16:42Z</time>
            </trkpt>
            <trkpt lat="47.223595581" lon="4.956281915">
                <ele>306.666870</ele>
                <time>2017-03-21T08:17:00Z</time>
            </trkpt>
            <trkpt lat="47.223549879" lon="4.956064986">
                <ele>307.027008</ele>
                <time>2017-03-21T08:17:18Z</time>
            </trkpt>
            <trkpt lat="47.223492751" lon="4.955855755">
                <ele>307.654236</ele>
                <time>2017-03-21T08:17:30Z</time>
            </trkpt>
            <trkpt lat="47.223431314" lon="4.955588512">
                <ele>308.255890</ele>
            </trkpt>
            <trkpt lat="47.223397410" lon="4.955347389">
                <ele>308.377045</ele>
                <time>2017-03-21T08:17:51Z</time>
            </trkpt>
            <trkpt lat="47.223360334" lon="4.955086950">
                <ele>308.539368</ele>
                <time>2017-03-21T08:18:09Z</time>
            </trkpt>
            <trkpt lat="47.223335407" lon="4.954857170">
                <ele>308.212494</ele>
                <time>2017-03-21T08:18:32Z</time>
            </trkpt>
            <trkpt lat="47.223311992" lon="4.954649591">
                <ele>308.191498</ele>
                <time>2017-03-21T08:18:52Z</time>
            </trkpt>
            <trkpt lat="47.223288201" lon="4.954458508">
                <ele>308.221191</ele>
                <time>2017-03-21T08:18:59Z</time>
            </trkpt>
            <trkpt lat="47.223254108" lon="4.954225634">
                <ele>307.988617</ele>
                <time>2017-03-21T08:19:16Z</time>
            </trkpt>
            <trkpt lat="47.223236123" lon="4.954026578">
                <ele>307.414001</ele>
                <time>2017-03-21T08:19:33Z</time>
            </trkpt>
            <trkpt lat="47.223211770" lon="4.953860240">
                <ele>307.456451</ele>
                <time>2017-03-21T08:19:50Z</time>
            </trkpt>
            <trkpt lat="47.223188166" lon="4.953660909">
                <ele>307.569702</ele>
                <time>2017-03-21T08:20:08Z</time>
            </trkpt>
            <trkpt lat="47.223153884" lon="4.953436285">
                <ele>308.271118</ele>
                <time>2017-03-21T08:20:24Z</time>
            </trkpt>
            <trkpt lat="47.223119602" lon="4.953211661">
                <ele>309.319000</ele>
                <time>2017-03-21T08:20:37Z</time>
            </trkpt>
            <trkpt lat="47.223090938" lon="4.952987312">
                <ele>309.996613</ele>
                <time>2017-03-21T08:20:55Z</time>
            </trkpt>
            <trkpt lat="47.223056468" lon="4.952770936">
                <ele>310.716095</ele>
            </trkpt>
            <trkpt lat="47.223005327" lon="4.952545489">
                <ele>311.681549</ele>
            </trkpt>
            <trkpt lat="47.222970294" lon="4.952353859">
                <ele>311.965149</ele>
                <time>2017-03-21T08:21:16Z</time>
            </trkpt>
            <trkpt lat="47.222907914" lon="4.952127864">
                <ele>312.397888</ele>
                <time>2017-03-21T08:21:31Z</time>
            </trkpt>
            <trkpt lat="47.222867823" lon="4.951911215">
                <ele>312.158905</ele>
            </trkpt>
            <trkpt lat="47.222826490" lon="4.951727316">
                <ele>311.688812</ele>
                <time>2017-03-21T08:21:49Z</time>
            </trkpt>
            <trkpt lat="47.222753551" lon="4.951492769">
                <ele>313.010620</ele>
                <time>2017-03-21T08:22:07Z</time>
            </trkpt>
            <trkpt lat="47.222696975" lon="4.951258802">
                <ele>314.507996</ele>
                <time>2017-03-21T08:22:23Z</time>
            </trkpt>
            <trkpt lat="47.222651824" lon="4.951017136">
                <ele>315.122375</ele>
                <time>2017-03-21T08:22:44Z</time>
            </trkpt>
            <trkpt lat="47.222595247" lon="4.950783170">
                <ele>315.713745</ele>
                <time>2017-03-21T08:23:02Z</time>
            </trkpt>
            <trkpt lat="47.222543729" lon="4.950574223">
                <ele>316.757507</ele>
                <time>2017-03-21T08:23:18Z</time>
            </trkpt>
            <trkpt lat="47.222476847" lon="4.950298469">
                <ele>317.158508</ele>
            </trkpt>
            <trkpt lat="47.222409591" lon="4.950039211">
                <ele>317.040985</ele>
                <time>2017-03-21T08:23:36Z</time>
            </trkpt>
            <trkpt lat="47.222363877" lon="4.949822292">
                <ele>318.028748</ele>
                <time>2017-03-21T08:23:55Z</time>
            </trkpt>
            <trkpt lat="47.222317602" lon="4.949630117">
                <ele>318.911377</ele>
                <time>2017-03-21T08:24:12Z</time>
            </trkpt>
            <trkpt lat="47.222255030" lon="4.949412376">
                <ele>319.910339</ele>
                <time>2017-03-21T08:24:30Z</time>
            </trkpt>
            <trkpt lat="47.222196395" lon="4.949269142">
                <ele>320.800201</ele>
                <time>2017-03-21T08:24:49Z</time>
            </trkpt>
            <trkpt lat="47.222104045" lon="4.949124264">
                <ele>322.044891</ele>
                <time>2017-03-21T08:25:06Z</time>
            </trkpt>
            <trkpt lat="47.222035852" lon="4.948906250">
                <ele>321.499023</ele>
            </trkpt>
            <trkpt lat="47.221983583" lon="4.948730299">
                <ele>321.361877</ele>
            </trkpt>
            <trkpt lat="47.221920449" lon="4.948537305">
                <ele>323.404510</ele>
                <time>2017-03-21T08:25:24Z</time>
            </trkpt>
            <trkpt lat="47.221851322" lon="4.948360532">
                <ele>325.326172</ele>
                <time>2017-03-21T08:25:44Z</time>
            </trkpt>
            <trkpt lat="47.221786693" lon="4.948233523">
                <ele>326.927429</ele>
                <time>2017-03-21T08:26:02Z</time>
            </trkpt>
            <trkpt lat="47.221726936" lon="4.948139780">
                <ele>328.291870</ele>
            </trkpt>
            <trkpt lat="47.221606489" lon="4.947993534">
                <ele>330.925781</ele>
                <time>2017-03-21T08:26:20Z</time>
            </trkpt>
            <trkpt lat="47.221524255" lon="4.947898695">
                <ele>332.841949</ele>
                <time>2017-03-21T08:26:37Z</time>
            </trkpt>
            <trkpt lat="47.221432090" lon="4.947745573">
                <ele>334.940826</ele>
                <time>2017-03-21T08:26:55Z</time>
            </trkpt>
            <trkpt lat="47.221350603" lon="4.947617743">
                <ele>336.853577</ele>
            </trkpt>
            <trkpt lat="47.221247386" lon="4.947455825">
                <ele>338.958130</ele>
                <time>2017-03-21T08:27:08Z</time>
            </trkpt>
            <trkpt lat="47.221172265" lon="4.947295279">
                <ele>339.801331</ele>
                <time>2017-03-21T08:27:25Z</time>
            </trkpt>
            <trkpt lat="47.221096968" lon="4.947204441">
                <ele>342.561005</ele>
                <time>2017-03-21T08:27:40Z</time>
            </trkpt>
            <trkpt lat="47.220993200" lon="4.947024565">
                <ele>346.620392</ele>
                <time>2017-03-21T08:27:55Z</time>
            </trkpt>
            <trkpt lat="47.220896976" lon="4.946875116">
                <ele>349.940674</ele>
                <time>2017-03-21T08:28:10Z</time>
            </trkpt>
            <trkpt lat="47.220796302" lon="4.946756757">
                <ele>353.668671</ele>
                <time>2017-03-21T08:28:27Z</time>
            </trkpt>
            <trkpt lat="47.220675666" lon="4.946618765">
                <ele>359.083740</ele>
                <time>2017-03-21T08:28:36Z</time>
            </trkpt>
            <trkpt lat="47.220572074" lon="4.946473347">
                <ele>363.091248</ele>
                <time>2017-03-21T08:28:56Z</time>
            </trkpt>
            <trkpt lat="47.220501265" lon="4.946370813">
                <ele>365.896240</ele>
                <time>2017-03-21T08:29:13Z</time>
            </trkpt>
            <trkpt lat="47.220424835" lon="4.946268004">
                <ele>368.971252</ele>
                <time>2017-03-21T08:29:29Z</time>
            </trkpt>
            <trkpt lat="47.220348220" lon="4.946173444">
                <ele>372.183746</ele>
                <time>2017-03-21T08:29:49Z</time>
            </trkpt>
            <trkpt lat="47.220277969" lon="4.946046167">
                <ele>374.836243</ele>
                <time>2017-03-21T08:30:07Z</time>
            </trkpt>
            <trkpt lat="47.220225322" lon="4.945886720">
                <ele>379.485504</ele>
            </trkpt>
            <trkpt lat="47.220167638" lon="4.945949964">
                <ele>384.055756</ele>
            </trkpt>
            <trkpt lat="47.220080552" lon="4.946069573">
                <ele>391.529785</ele>
                <time>2017-03-21T08:37:20Z</time>
            </trkpt>
            <trkpt lat="47.220019674" lon="4.946025322">
                <ele>396.571991</ele>
                <time>2017-03-21T08:37:30Z</time>
            </trkpt>
            <trkpt lat="47.219952617" lon="4.946005540">
                <ele>402.283508</ele>
                <time>2017-03-21T08:37:42Z</time>
            </trkpt>
            <trkpt lat="47.219878262" lon="4.946059714">
                <ele>408.986969</ele>
                <time>2017-03-21T08:37:52Z</time>
            </trkpt>
            <trkpt lat="47.219829182" lon="4.945991268">
                <ele>412.786743</ele>
                <time>2017-03-21T08:38:06Z</time>
            </trkpt>
            <trkpt lat="47.219746014" lon="4.945937674">
                <ele>415.915771</ele>
                <time>2017-03-21T08:38:20Z</time>
            </trkpt>
            <trkpt lat="47.219720903" lon="4.945804341">
                <ele>415.687653</ele>
                <time>2017-03-21T08:38:33Z</time>
            </trkpt>
            <trkpt lat="47.219683612" lon="4.945660327">
                <ele>415.955078</ele>
                <time>2017-03-21T08:38:38Z</time>
            </trkpt>
            <trkpt lat="47.219680343" lon="4.945580866">
                <ele>415.643951</ele>
                <time>2017-03-21T08:38:45Z</time>
            </trkpt>
            <trkpt lat="47.219660376" lon="4.945495890">
                <ele>415.800781</ele>
                <time>2017-03-21T08:39:00Z</time>
            </trkpt>
            <trkpt lat="47.219703068" lon="4.945349348">
                <ele>413.610138</ele>
                <time>2017-03-21T08:39:16Z</time>
            </trkpt>
            <trkpt lat="47.219761497" lon="4.945253113">
                <ele>411.602570</ele>
                <time>2017-03-21T08:39:38Z</time>
            </trkpt>
            <trkpt lat="47.219781899" lon="4.945097228">
                <ele>411.125702</ele>
                <time>2017-03-21T08:41:05Z</time>
            </trkpt>
            <trkpt lat="47.219780196" lon="4.944923752">
                <ele>411.567261</ele>
                <time>2017-03-21T08:41:19Z</time>
            </trkpt>
            <trkpt lat="47.219778493" lon="4.944750276">
                <ele>411.917633</ele>
                <time>2017-03-21T08:41:35Z</time>
            </trkpt>
            <trkpt lat="47.219722090" lon="4.944508081">
                <ele>411.783691</ele>
                <time>2017-03-21T08:41:53Z</time>
            </trkpt>
            <trkpt lat="47.219687231" lon="4.944308221">
                <ele>411.293854</ele>
                <time>2017-03-21T08:42:12Z</time>
            </trkpt>
            <trkpt lat="47.219646007" lon="4.944141077">
                <ele>411.773224</ele>
                <time>2017-03-21T08:42:24Z</time>
            </trkpt>
            <trkpt lat="47.219576313" lon="4.943989061">
                <ele>414.251862</ele>
                <time>2017-03-21T08:42:41Z</time>
            </trkpt>
            <trkpt lat="47.219522918" lon="4.943862609">
                <ele>416.331085</ele>
                <time>2017-03-21T08:42:47Z</time>
            </trkpt>
            <trkpt lat="47.219453038" lon="4.943718842">
                <ele>419.288025</ele>
                <time>2017-03-21T08:43:06Z</time>
            </trkpt>
            <trkpt lat="47.219406753" lon="4.943526683">
                <ele>420.836243</ele>
                <time>2017-03-21T08:43:26Z</time>
            </trkpt>
            <trkpt lat="47.219331999" lon="4.943349652">
                <ele>421.140320</ele>
                <time>2017-03-21T08:43:48Z</time>
            </trkpt>
            <trkpt lat="47.219234581" lon="4.943179775">
                <ele>420.313751</ele>
                <time>2017-03-21T08:44:04Z</time>
            </trkpt>
            <trkpt lat="47.219137536" lon="4.942993403">
                <ele>420.373444</ele>
                <time>2017-03-21T08:44:23Z</time>
            </trkpt>
            <trkpt lat="47.219070077" lon="4.942742419">
                <ele>419.742188</ele>
                <time>2017-03-21T08:44:40Z</time>
            </trkpt>
            <trkpt lat="47.219029037" lon="4.942567031">
                <ele>419.290283</ele>
                <time>2017-03-21T08:44:57Z</time>
            </trkpt>
            <trkpt lat="47.218999421" lon="4.942383942">
                <ele>418.644867</ele>
                <time>2017-03-21T08:45:27Z</time>
            </trkpt>
            <trkpt lat="47.218954438" lon="4.942134053">
                <ele>417.439026</ele>
            </trkpt>
            <trkpt lat="47.218890547" lon="4.941974067">
                <ele>417.207489</ele>
                <time>2017-03-21T08:45:53Z</time>
            </trkpt>
            <trkpt lat="47.218859440" lon="4.941856961">
                <ele>416.136749</ele>
                <time>2017-03-21T08:46:10Z</time>
            </trkpt>
            <trkpt lat="47.218801727" lon="4.941672506">
                <ele>415.192993</ele>
            </trkpt>
            <trkpt lat="47.218721537" lon="4.941486959">
                <ele>415.973511</ele>
                <time>2017-03-21T08:46:28Z</time>
            </trkpt>
            <trkpt lat="47.218669070" lon="4.941319274">
                <ele>415.745117</ele>
                <time>2017-03-21T08:46:47Z</time>
            </trkpt>
            <trkpt lat="47.218610611" lon="4.941167811">
                <ele>415.042572</ele>
                <time>2017-03-21T08:47:04Z</time>
            </trkpt>
            <trkpt lat="47.218501394" lon="4.941022136">
                <ele>414.680817</ele>
            </trkpt>
            <trkpt lat="47.218357716" lon="4.940907812">
                <ele>414.186005</ele>
                <time>2017-03-21T08:47:23Z</time>
            </trkpt>
            <trkpt lat="47.218276593" lon="4.940763505">
                <ele>412.782623</ele>
                <time>2017-03-21T08:47:42Z</time>
            </trkpt>
            <trkpt lat="47.218211584" lon="4.940653008">
                <ele>411.893250</ele>
                <time>2017-03-21T08:47:43Z</time>
            </trkpt>
            <trkpt lat="47.218101434" lon="4.940548573">
                <ele>412.442810</ele>
                <time>2017-03-21T08:47:48Z</time>
            </trkpt>
            <trkpt lat="47.218025372" lon="4.940429282">
                <ele>412.476715</ele>
                <time>2017-03-21T08:48:07Z</time>
            </trkpt>
            <trkpt lat="47.217909418" lon="4.940332822">
                <ele>414.253265</ele>
            </trkpt>
            <trkpt lat="47.217791229" lon="4.940335331">
                <ele>417.675934</ele>
                <time>2017-03-21T08:48:08Z</time>
            </trkpt>
            <trkpt lat="47.217677655" lon="4.940338405">
                <ele>420.799194</ele>
                <time>2017-03-21T08:48:23Z</time>
            </trkpt>
            <trkpt lat="47.217590241" lon="4.940267762">
                <ele>421.726990</ele>
            </trkpt>
            <trkpt lat="47.217458049" lon="4.940198930">
                <ele>423.575256</ele>
                <time>2017-03-21T08:48:43Z</time>
            </trkpt>
            <trkpt lat="47.217358388" lon="4.940172359">
                <ele>425.267700</ele>
                <time>2017-03-21T08:48:56Z</time>
            </trkpt>
            <trkpt lat="47.217330793" lon="4.940048736">
                <ele>424.817688</ele>
                <time>2017-03-21T08:49:22Z</time>
            </trkpt>
            <trkpt lat="47.217303906" lon="4.939907324">
                <ele>423.851257</ele>
                <time>2017-03-21T08:49:42Z</time>
            </trkpt>
            <trkpt lat="47.217269320" lon="4.939781542">
                <ele>422.683929</ele>
                <time>2017-03-21T08:49:59Z</time>
            </trkpt>
            <trkpt lat="47.217240258" lon="4.939573720">
                <ele>420.213867</ele>
                <time>2017-03-21T08:50:05Z</time>
            </trkpt>
            <trkpt lat="47.217143021" lon="4.939395609">
                <ele>419.795563</ele>
            </trkpt>
            <trkpt lat="47.217044667" lon="4.939266982">
                <ele>420.838257</ele>
                <time>2017-03-21T08:50:24Z</time>
            </trkpt>
            <trkpt lat="47.216958854" lon="4.939081171">
                <ele>422.428986</ele>
                <time>2017-03-21T08:50:43Z</time>
            </trkpt>
            <trkpt lat="47.216883906" lon="4.938912402">
                <ele>422.983521</ele>
                <time>2017-03-21T08:51:00Z</time>
            </trkpt>
            <trkpt lat="47.216820756" lon="4.938719437">
                <ele>422.584351</ele>
                <time>2017-03-21T08:51:03Z</time>
            </trkpt>
            <trkpt lat="47.216769029" lon="4.938518772">
                <ele>424.903259</ele>
                <time>2017-03-21T08:51:20Z</time>
            </trkpt>
            <trkpt lat="47.216717860" lon="4.938293365">
                <ele>428.583496</ele>
                <time>2017-03-21T08:51:35Z</time>
            </trkpt>
            <trkpt lat="47.216656196" lon="4.938034424">
                <ele>432.007996</ele>
                <time>2017-03-21T08:51:50Z</time>
            </trkpt>
            <trkpt lat="47.216632564" lon="4.937835124">
                <ele>434.385437</ele>
                <time>2017-03-21T08:52:00Z</time>
            </trkpt>
            <trkpt lat="47.216673758" lon="4.937754562">
                <ele>435.254883</ele>
                <time>2017-03-21T08:52:02Z</time>
            </trkpt>
            <trkpt lat="47.216818741" lon="4.937811143">
                <ele>434.024353</ele>
                <time>2017-03-21T08:52:19Z</time>
            </trkpt>
            <trkpt lat="47.216968785" lon="4.937892740">
                <ele>434.888519</ele>
                <time>2017-03-21T08:52:35Z</time>
            </trkpt>
            <trkpt lat="47.217090362" lon="4.937989466">
                <ele>435.352539</ele>
                <time>2017-03-21T08:52:37Z</time>
            </trkpt>
            <trkpt lat="47.217216999" lon="4.938111208">
                <ele>434.750336</ele>
                <time>2017-03-21T08:52:50Z</time>
            </trkpt>
            <trkpt lat="47.217356363" lon="4.938167517">
                <ele>435.273926</ele>
                <time>2017-03-21T08:53:03Z</time>
            </trkpt>
            <trkpt lat="47.217483930" lon="4.938248023">
                <ele>434.657013</ele>
                <time>2017-03-21T08:53:09Z</time>
            </trkpt>
            <trkpt lat="47.217628726" lon="4.938312854">
                <ele>434.420929</ele>
                <time>2017-03-21T08:53:11Z</time>
            </trkpt>
            <trkpt lat="47.217757038" lon="4.938360371">
                <ele>434.423157</ele>
                <time>2017-03-21T08:53:26Z</time>
            </trkpt>
            <trkpt lat="47.217907826" lon="4.938408980">
                <ele>435.102478</ele>
                <time>2017-03-21T08:53:46Z</time>
            </trkpt>
            <trkpt lat="47.218042314" lon="4.938432028">
                <ele>436.352203</ele>
                <time>2017-03-21T08:54:01Z</time>
            </trkpt>
            <trkpt lat="47.218177174" lon="4.938438581">
                <ele>438.206604</ele>
                <time>2017-03-21T08:54:05Z</time>
            </trkpt>
            <trkpt lat="47.218289744" lon="4.938435795">
                <ele>434.726715</ele>
                <time>2017-03-21T08:54:25Z</time>
            </trkpt>
            <trkpt lat="47.218364096" lon="4.938381612">
                <ele>434.177765</ele>
                <time>2017-03-21T08:54:39Z</time>
            </trkpt>
            <trkpt lat="47.218436363" lon="4.938170452">
                <ele>438.537842</ele>
                <time>2017-03-21T08:54:51Z</time>
            </trkpt>
            <trkpt lat="47.218463304" lon="4.937973604">
                <ele>442.391663</ele>
                <time>2017-03-21T08:55:05Z</time>
            </trkpt>
            <trkpt lat="47.218500925" lon="4.937802043">
                <ele>443.441010</ele>
                <time>2017-03-21T08:55:22Z</time>
            </trkpt>
            <trkpt lat="47.218569059" lon="4.937524629">
                <ele>445.439117</ele>
            </trkpt>
            <trkpt lat="47.218618847" lon="4.937312376">
                <ele>447.248749</ele>
                <time>2017-03-21T08:55:43Z</time>
            </trkpt>
            <trkpt lat="47.218680618" lon="4.937067678">
                <ele>448.344055</ele>
            </trkpt>
            <trkpt lat="47.218729662" lon="4.936888414">
                <ele>448.524048</ele>
                <time>2017-03-21T08:56:03Z</time>
            </trkpt>
            <trkpt lat="47.218829464" lon="4.936703358">
                <ele>447.077209</ele>
                <time>2017-03-21T08:56:21Z</time>
            </trkpt>
            <trkpt lat="47.218923647" lon="4.936518029">
                <ele>447.171143</ele>
                <time>2017-03-21T08:56:31Z</time>
            </trkpt>
            <trkpt lat="47.219034129" lon="4.936358261">
                <ele>447.267914</ele>
                <time>2017-03-21T08:56:50Z</time>
            </trkpt>
            <trkpt lat="47.219100216" lon="4.936171566">
                <ele>450.726807</ele>
                <time>2017-03-21T08:57:08Z</time>
            </trkpt>
            <trkpt lat="47.219204892" lon="4.936019771">
                <ele>450.587891</ele>
            </trkpt>
            <trkpt lat="47.219308640" lon="4.935909214">
                <ele>449.165253</ele>
                <time>2017-03-21T08:57:26Z</time>
            </trkpt>
            <trkpt lat="47.219446102" lon="4.935800293">
                <ele>447.620758</ele>
                <time>2017-03-21T08:57:44Z</time>
            </trkpt>
            <trkpt lat="47.219567450" lon="4.935657562">
                <ele>448.877625</ele>
                <time>2017-03-21T08:58:05Z</time>
            </trkpt>
            <trkpt lat="47.219699665" lon="4.935531872">
                <ele>448.387512</ele>
                <time>2017-03-21T08:58:24Z</time>
            </trkpt>
            <trkpt lat="47.219850595" lon="4.935324522">
                <ele>447.588440</ele>
            </trkpt>
            <trkpt lat="47.220012949" lon="4.935109468">
                <ele>447.502197</ele>
                <time>2017-03-21T08:58:42Z</time>
            </trkpt>
            <trkpt lat="47.220117068" lon="4.934982412">
                <ele>447.927307</ele>
            </trkpt>
            <trkpt lat="47.220213709" lon="4.934937561">
                <ele>446.195770</ele>
                <time>2017-03-21T08:58:58Z</time>
            </trkpt>
            <trkpt lat="47.220346294" lon="4.934795372">
                <ele>446.188568</ele>
                <time>2017-03-21T08:59:17Z</time>
            </trkpt>
            <trkpt lat="47.220471031" lon="4.934751883">
                <ele>443.794586</ele>
                <time>2017-03-21T08:59:26Z</time>
            </trkpt>
            <trkpt lat="47.220553786" lon="4.934574247">
                <ele>446.231506</ele>
                <time>2017-03-21T08:59:43Z</time>
            </trkpt>
            <trkpt lat="47.220603755" lon="4.934353736">
                <ele>450.916992</ele>
                <time>2017-03-21T08:59:47Z</time>
            </trkpt>
            <trkpt lat="47.220755055" lon="4.934129883">
                <ele>452.050415</ele>
                <time>2017-03-21T08:59:52Z</time>
            </trkpt>
            <trkpt lat="47.220876401" lon="4.933987145">
                <ele>451.503052</ele>
                <time>2017-03-21T09:00:00Z</time>
            </trkpt>
            <trkpt lat="47.220986137" lon="4.933860357">
                <ele>451.884369</ele>
                <time>2017-03-21T09:00:22Z</time>
            </trkpt>
            <trkpt lat="47.221119092" lon="4.933701667">
                <ele>451.035614</ele>
                <time>2017-03-21T09:00:40Z</time>
            </trkpt>
            <trkpt lat="47.221211599" lon="4.933590557">
                <ele>450.832123</ele>
                <time>2017-03-21T09:00:42Z</time>
            </trkpt>
            <trkpt lat="47.221334850" lon="4.933613049">
                <ele>446.207001</ele>
                <time>2017-03-21T09:00:45Z</time>
            </trkpt>
            <trkpt lat="47.221456381" lon="4.933462060">
                <ele>445.360321</ele>
                <time>2017-03-21T09:01:02Z</time>
            </trkpt>
            <trkpt lat="47.221572292" lon="4.933310799">
                <ele>443.003754</ele>
                <time>2017-03-21T09:01:21Z</time>
            </trkpt>
            <trkpt lat="47.221688390" lon="4.933151288">
                <ele>441.424072</ele>
                <time>2017-03-21T09:01:37Z</time>
            </trkpt>
            <trkpt lat="47.221772256" lon="4.932924157">
                <ele>443.367676</ele>
                <time>2017-03-21T09:01:59Z</time>
            </trkpt>
            <trkpt lat="47.221838708" lon="4.932720953">
                <ele>443.999817</ele>
                <time>2017-03-21T09:02:13Z</time>
            </trkpt>
            <trkpt lat="47.221887189" lon="4.932566419">
                <ele>444.925201</ele>
                <time>2017-03-21T09:02:23Z</time>
            </trkpt>
            <trkpt lat="47.221942773" lon="4.932346172">
                <ele>446.652863</ele>
                <time>2017-03-21T09:02:43Z</time>
            </trkpt>
            <trkpt lat="47.221964085" lon="4.932149035">
                <ele>447.290771</ele>
                <time>2017-03-21T09:02:47Z</time>
            </trkpt>
            <trkpt lat="47.221968353" lon="4.931959329">
                <ele>447.714844</ele>
                <time>2017-03-21T09:03:06Z</time>
            </trkpt>
            <trkpt lat="47.221969043" lon="4.931678621">
                <ele>448.588745</ele>
                <time>2017-03-21T09:03:27Z</time>
            </trkpt>
            <trkpt lat="47.221973125" lon="4.931497162">
                <ele>446.769745</ele>
                <time>2017-03-21T09:03:45Z</time>
            </trkpt>
            <trkpt lat="47.221966896" lon="4.931273919">
                <ele>443.499359</ele>
                <time>2017-03-21T09:03:56Z</time>
            </trkpt>
            <trkpt lat="47.221949242" lon="4.931058379">
                <ele>440.651398</ele>
                <time>2017-03-21T09:04:07Z</time>
            </trkpt>
            <trkpt lat="47.221924671" lon="4.930900304">
                <ele>438.535339</ele>
                <time>2017-03-21T09:04:17Z</time>
            </trkpt>
            <trkpt lat="47.221901026" lon="4.930700988">
                <ele>435.226501</ele>
                <time>2017-03-21T09:04:27Z</time>
            </trkpt>
            <trkpt lat="47.221854719" lon="4.930508831">
                <ele>432.374817</ele>
                <time>2017-03-21T09:04:39Z</time>
            </trkpt>
            <trkpt lat="47.221841757" lon="4.930334805">
                <ele>429.109436</ele>
                <time>2017-03-21T09:04:48Z</time>
            </trkpt>
            <trkpt lat="47.221839475" lon="4.930186067">
                <ele>430.790009</ele>
                <time>2017-03-21T09:05:04Z</time>
            </trkpt>
            <trkpt lat="47.221945869" lon="4.930207735">
                <ele>428.687073</ele>
            </trkpt>
            <trkpt lat="47.222058995" lon="4.930180187">
                <ele>426.541138</ele>
            </trkpt>
            <trkpt lat="47.222157674" lon="4.930044596">
                <ele>427.868988</ele>
                <time>2017-03-21T09:05:16Z</time>
            </trkpt>
            <trkpt lat="47.222301492" lon="4.929902934">
                <ele>428.724243</ele>
            </trkpt>
            <trkpt lat="47.222439505" lon="4.929769247">
                <ele>429.312683</ele>
                <time>2017-03-21T09:05:30Z</time>
            </trkpt>
            <trkpt lat="47.222514223" lon="4.929698551">
                <ele>426.360413</ele>
                <time>2017-03-21T09:05:43Z</time>
            </trkpt>
            <trkpt lat="47.222590795" lon="4.929545373">
                <ele>424.834290</ele>
                <time>2017-03-21T09:05:50Z</time>
            </trkpt>
            <trkpt lat="47.222623341" lon="4.929348777">
                <ele>427.002625</ele>
                <time>2017-03-21T09:06:02Z</time>
            </trkpt>
            <trkpt lat="47.222656998" lon="4.929102691">
                <ele>430.524261</ele>
                <time>2017-03-21T09:06:17Z</time>
            </trkpt>
            <trkpt lat="47.222678489" lon="4.928897302">
                <ele>432.594757</ele>
                <time>2017-03-21T09:06:29Z</time>
            </trkpt>
            <trkpt lat="47.222705600" lon="4.928692184">
                <ele>433.403503</ele>
                <time>2017-03-21T09:06:36Z</time>
            </trkpt>
            <trkpt lat="47.222699551" lon="4.928460690">
                <ele>436.618378</ele>
                <time>2017-03-21T09:06:49Z</time>
            </trkpt>
            <trkpt lat="47.222688252" lon="4.928212427">
                <ele>439.490814</ele>
                <time>2017-03-21T09:07:08Z</time>
            </trkpt>
            <trkpt lat="47.222691402" lon="4.928072207">
                <ele>440.130432</ele>
                <time>2017-03-21T09:07:15Z</time>
            </trkpt>
            <trkpt lat="47.222746237" lon="4.927884945">
                <ele>438.168243</ele>
                <time>2017-03-21T09:07:17Z</time>
            </trkpt>
            <trkpt lat="47.222811939" lon="4.927714724">
                <ele>435.770325</ele>
                <time>2017-03-21T09:07:26Z</time>
            </trkpt>
            <trkpt lat="47.222899932" lon="4.927553838">
                <ele>432.389679</ele>
                <time>2017-03-21T09:07:32Z</time>
            </trkpt>
            <trkpt lat="47.222943527" lon="4.927366031">
                <ele>431.601257</ele>
                <time>2017-03-21T09:07:46Z</time>
            </trkpt>
            <trkpt lat="47.223014662" lon="4.927204328">
                <ele>428.201263</ele>
                <time>2017-03-21T09:08:00Z</time>
            </trkpt>
            <trkpt lat="47.223062580" lon="4.927074531">
                <ele>426.101257</ele>
                <time>2017-03-21T09:08:12Z</time>
            </trkpt>
            <trkpt lat="47.223096807" lon="4.926883690">
                <ele>427.395050</ele>
                <time>2017-03-21T09:08:18Z</time>
            </trkpt>
            <trkpt lat="47.223171070" lon="4.926755950">
                <ele>425.844635</ele>
                <time>2017-03-21T09:08:26Z</time>
            </trkpt>
            <trkpt lat="47.223230845" lon="4.926595493">
                <ele>426.701813</ele>
                <time>2017-03-21T09:08:40Z</time>
            </trkpt>
            <trkpt lat="47.223318096" lon="4.926467597">
                <ele>426.257385</ele>
                <time>2017-03-21T09:08:56Z</time>
            </trkpt>
            <trkpt lat="47.223437395" lon="4.926415567">
                <ele>423.606750</ele>
                <time>2017-03-21T09:09:07Z</time>
            </trkpt>
            <trkpt lat="47.223557065" lon="4.926347040">
                <ele>421.203583</ele>
                <time>2017-03-21T09:09:08Z</time>
            </trkpt>
            <trkpt lat="47.223660803" lon="4.926236455">
                <ele>419.624451</ele>
                <time>2017-03-21T09:09:22Z</time>
            </trkpt>
            <trkpt lat="47.223735519" lon="4.926165753">
                <ele>418.457062</ele>
                <time>2017-03-21T09:09:36Z</time>
            </trkpt>
            <trkpt lat="47.223808198" lon="4.926185783">
                <ele>416.177582</ele>
                <time>2017-03-21T09:09:39Z</time>
            </trkpt>
            <trkpt lat="47.223937440" lon="4.926192034">
                <ele>417.192261</ele>
                <time>2017-03-21T09:09:53Z</time>
            </trkpt>
            <trkpt lat="47.224058630" lon="4.926211881">
                <ele>420.669495</ele>
                <time>2017-03-21T09:10:09Z</time>
            </trkpt>
            <trkpt lat="47.224158207" lon="4.926151279">
                <ele>423.461426</ele>
                <time>2017-03-21T09:10:26Z</time>
            </trkpt>
            <trkpt lat="47.224276811" lon="4.926087493">
                <ele>426.035461</ele>
                <time>2017-03-21T09:10:44Z</time>
            </trkpt>
            <trkpt lat="47.224235073" lon="4.926214688">
                <ele>425.893433</ele>
                <time>2017-03-21T09:11:26Z</time>
            </trkpt>
            <trkpt lat="47.224168262" lon="4.926434407">
                <ele>424.678314</ele>
                <time>2017-03-21T09:11:46Z</time>
            </trkpt>
            <trkpt lat="47.224137923" lon="4.926601304">
                <ele>425.744263</ele>
                <time>2017-03-21T09:12:02Z</time>
            </trkpt>
            <trkpt lat="47.224115375" lon="4.926812109">
                <ele>427.689392</ele>
                <time>2017-03-21T09:12:16Z</time>
            </trkpt>
            <trkpt lat="47.224099292" lon="4.927000831">
                <ele>429.563995</ele>
                <time>2017-03-21T09:12:20Z</time>
            </trkpt>
            <trkpt lat="47.224084164" lon="4.927173505">
                <ele>430.473633</ele>
                <time>2017-03-21T09:12:26Z</time>
            </trkpt>
            <trkpt lat="47.224062119" lon="4.927403646">
                <ele>430.415009</ele>
                <time>2017-03-21T09:12:36Z</time>
            </trkpt>
            <trkpt lat="47.224051498" lon="4.927626082">
                <ele>430.738617</ele>
                <time>2017-03-21T09:12:52Z</time>
            </trkpt>
            <trkpt lat="47.224050667" lon="4.927855572">
                <ele>431.767456</ele>
                <time>2017-03-21T09:13:13Z</time>
            </trkpt>
            <trkpt lat="47.224083440" lon="4.928050954">
                <ele>434.584503</ele>
                <time>2017-03-21T09:13:24Z</time>
            </trkpt>
            <trkpt lat="47.224111763" lon="4.928198760">
                <ele>436.750824</ele>
                <time>2017-03-21T09:13:29Z</time>
            </trkpt>
            <trkpt lat="47.224167259" lon="4.928419422">
                <ele>440.513031</ele>
                <time>2017-03-21T09:13:47Z</time>
            </trkpt>
            <trkpt lat="47.224216179" lon="4.928558884">
                <ele>443.399261</ele>
                <time>2017-03-21T09:14:02Z</time>
            </trkpt>
            <trkpt lat="47.224269406" lon="4.928693580">
                <ele>445.864685</ele>
                <time>2017-03-21T09:14:07Z</time>
            </trkpt>
            <trkpt lat="47.224346036" lon="4.928788122">
                <ele>447.724518</ele>
                <time>2017-03-21T09:14:20Z</time>
            </trkpt>
            <trkpt lat="47.224472868" lon="4.928901610">
                <ele>450.547943</ele>
                <time>2017-03-21T09:14:22Z</time>
            </trkpt>
            <trkpt lat="47.224573195" lon="4.928931305">
                <ele>452.687866</ele>
                <time>2017-03-21T09:14:38Z</time>
            </trkpt>
            <trkpt lat="47.224671515" lon="4.928943207">
                <ele>454.770508</ele>
                <time>2017-03-21T09:14:55Z</time>
            </trkpt>
            <trkpt lat="47.224693559" lon="4.929038007">
                <ele>455.123016</ele>
                <time>2017-03-21T09:15:21Z</time>
            </trkpt>
            <trkpt lat="47.224697509" lon="4.929168470">
                <ele>454.401245</ele>
                <time>2017-03-21T09:15:27Z</time>
            </trkpt>
            <trkpt lat="47.224694543" lon="4.929300447">
                <ele>452.953247</ele>
                <time>2017-03-21T09:15:29Z</time>
            </trkpt>
            <trkpt lat="47.224696825" lon="4.929449192">
                <ele>451.302002</ele>
                <time>2017-03-21T09:15:31Z</time>
            </trkpt>
            <trkpt lat="47.224692375" lon="4.929647157">
                <ele>449.093994</ele>
                <time>2017-03-21T09:15:49Z</time>
            </trkpt>
            <trkpt lat="47.224671995" lon="4.929803063">
                <ele>445.969208</ele>
                <time>2017-03-21T09:15:52Z</time>
            </trkpt>
            <trkpt lat="47.224677429" lon="4.929811583">
                <ele>445.485687</ele>
                <time>2017-03-21T09:16:07Z</time>
            </trkpt>
            <trkpt lat="47.224697994" lon="4.929647429">
                <ele>449.006622</ele>
                <time>2017-03-21T09:16:28Z</time>
            </trkpt>
            <trkpt lat="47.224702259" lon="4.929457713">
                <ele>451.174377</ele>
                <time>2017-03-21T09:16:59Z</time>
            </trkpt>
            <trkpt lat="47.224694543" lon="4.929300447">
                <ele>452.953247</ele>
                <time>2017-03-21T09:17:26Z</time>
            </trkpt>
            <trkpt lat="47.224697323" lon="4.929176719">
                <ele>454.310760</ele>
                <time>2017-03-21T09:17:51Z</time>
            </trkpt>
            <trkpt lat="47.224700474" lon="4.929036494">
                <ele>455.188385</ele>
                <time>2017-03-21T09:18:10Z</time>
            </trkpt>
            <trkpt lat="47.224785504" lon="4.929007581">
                <ele>456.008270</ele>
                <time>2017-03-21T09:18:28Z</time>
            </trkpt>
            <trkpt lat="47.224874299" lon="4.929061426">
                <ele>456.734161</ele>
                <time>2017-03-21T09:18:47Z</time>
            </trkpt>
            <trkpt lat="47.224974147" lon="4.929124064">
                <ele>457.428986</ele>
                <time>2017-03-21T09:18:57Z</time>
            </trkpt>
            <trkpt lat="47.225107154" lon="4.929213080">
                <ele>456.336487</ele>
                <time>2017-03-21T09:19:08Z</time>
            </trkpt>
            <trkpt lat="47.225230962" lon="4.929210818">
                <ele>456.524658</ele>
                <time>2017-03-21T09:19:25Z</time>
            </trkpt>
            <trkpt lat="47.225343716" lon="4.929199763">
                <ele>456.834839</ele>
                <time>2017-03-21T09:19:31Z</time>
            </trkpt>
            <trkpt lat="47.225457954" lon="4.929122719">
                <ele>459.172668</ele>
                <time>2017-03-21T09:19:52Z</time>
            </trkpt>
            <trkpt lat="47.225578688" lon="4.929021159">
                <ele>460.327179</ele>
                <time>2017-03-21T09:20:05Z</time>
            </trkpt>
            <trkpt lat="47.225721600" lon="4.929006239">
                <ele>460.777191</ele>
                <time>2017-03-21T09:20:27Z</time>
            </trkpt>
            <trkpt lat="47.225822402" lon="4.928925668">
                <ele>462.033478</ele>
                <time>2017-03-21T09:20:46Z</time>
            </trkpt>
            <trkpt lat="47.225946209" lon="4.928923405">
                <ele>462.444122</ele>
                <time>2017-03-21T09:21:05Z</time>
            </trkpt>
            <trkpt lat="47.226091752" lon="4.928955226">
                <ele>462.802704</ele>
                <time>2017-03-21T09:21:24Z</time>
            </trkpt>
            <trkpt lat="47.226210868" lon="4.928911447">
                <ele>464.762177</ele>
            </trkpt>
            <trkpt lat="47.226352645" lon="4.928860508">
                <ele>467.001740</ele>
                <time>2017-03-21T09:21:43Z</time>
            </trkpt>
            <trkpt lat="47.226468795" lon="4.928948710">
                <ele>467.064026</ele>
                <time>2017-03-21T09:21:57Z</time>
            </trkpt>
            <trkpt lat="47.226557033" lon="4.929027303">
                <ele>466.488403</ele>
                <time>2017-03-21T09:22:10Z</time>
            </trkpt>
            <trkpt lat="47.226638912" lon="4.929138619">
                <ele>465.204681</ele>
                <time>2017-03-21T09:22:19Z</time>
            </trkpt>
            <trkpt lat="47.226755246" lon="4.929218573">
                <ele>464.152130</ele>
                <time>2017-03-21T09:22:27Z</time>
            </trkpt>
            <trkpt lat="47.226859786" lon="4.929322730">
                <ele>461.002747</ele>
                <time>2017-03-21T09:22:42Z</time>
            </trkpt>
            <trkpt lat="47.226969946" lon="4.929427159">
                <ele>458.035004</ele>
                <time>2017-03-21T09:22:44Z</time>
            </trkpt>
            <trkpt lat="47.227081403" lon="4.929473847">
                <ele>456.911560</ele>
                <time>2017-03-21T09:22:57Z</time>
            </trkpt>
            <trkpt lat="47.227204098" lon="4.929521079">
                <ele>455.974854</ele>
                <time>2017-03-21T09:23:10Z</time>
            </trkpt>
            <trkpt lat="47.227309379" lon="4.929592241">
                <ele>454.489838</ele>
                <time>2017-03-21T09:23:27Z</time>
            </trkpt>
            <trkpt lat="47.227391999" lon="4.929670564">
                <ele>452.865326</ele>
                <time>2017-03-21T09:23:43Z</time>
            </trkpt>
            <trkpt lat="47.227434727" lon="4.929771729">
                <ele>450.289703</ele>
                <time>2017-03-21T09:23:48Z</time>
            </trkpt>
            <trkpt lat="47.227358526" lon="4.929908423">
                <ele>447.045380</ele>
                <time>2017-03-21T09:24:12Z</time>
            </trkpt>
            <trkpt lat="47.227284734" lon="4.929937880">
                <ele>446.758301</ele>
                <time>2017-03-21T09:24:32Z</time>
            </trkpt>
            <trkpt lat="47.227153639" lon="4.930014108">
                <ele>446.265747</ele>
                <time>2017-03-21T09:24:51Z</time>
            </trkpt>
            <trkpt lat="47.227038473" lon="4.930132397">
                <ele>445.841370</ele>
                <time>2017-03-21T09:25:12Z</time>
            </trkpt>
            <trkpt lat="47.226951218" lon="4.930260296">
                <ele>445.342743</ele>
                <time>2017-03-21T09:25:30Z</time>
            </trkpt>
            <trkpt lat="47.226845622" lon="4.930453369">
                <ele>445.046539</ele>
                <time>2017-03-21T09:25:48Z</time>
            </trkpt>
            <trkpt lat="47.226720702" lon="4.930505121">
                <ele>444.213135</ele>
                <time>2017-03-21T09:26:04Z</time>
            </trkpt>
            <trkpt lat="47.226614864" lon="4.930458704">
                <ele>443.037354</ele>
                <time>2017-03-21T09:26:10Z</time>
            </trkpt>
            <trkpt lat="47.226502480" lon="4.930453259">
                <ele>442.013916</ele>
                <time>2017-03-21T09:26:17Z</time>
            </trkpt>
            <trkpt lat="47.226384848" lon="4.930431044">
                <ele>440.634613</ele>
                <time>2017-03-21T09:26:21Z</time>
            </trkpt>
            <trkpt lat="47.226259742" lon="4.930491044">
                <ele>439.683319</ele>
                <time>2017-03-21T09:26:36Z</time>
            </trkpt>
            <trkpt lat="47.226184448" lon="4.930414064">
                <ele>438.251648</ele>
                <time>2017-03-21T09:26:50Z</time>
            </trkpt>
            <trkpt lat="47.226089817" lon="4.930401156">
                <ele>437.069885</ele>
                <time>2017-03-21T09:27:02Z</time>
            </trkpt>
            <trkpt lat="47.226030839" lon="4.930413892">
                <ele>436.523193</ele>
                <time>2017-03-21T09:27:04Z</time>
            </trkpt>
            <trkpt lat="47.225948498" lon="4.930483215">
                <ele>434.811188</ele>
                <time>2017-03-21T09:27:18Z</time>
            </trkpt>
            <trkpt lat="47.225842624" lon="4.930528639">
                <ele>432.564301</ele>
                <time>2017-03-21T09:27:23Z</time>
            </trkpt>
            <trkpt lat="47.225761246" lon="4.930632580">
                <ele>433.584503</ele>
                <time>2017-03-21T09:27:37Z</time>
            </trkpt>
            <trkpt lat="47.225692630" lon="4.930694782">
                <ele>433.785278</ele>
                <time>2017-03-21T09:27:41Z</time>
            </trkpt>
            <trkpt lat="47.225612663" lon="4.930748711">
                <ele>433.586456</ele>
                <time>2017-03-21T09:27:51Z</time>
            </trkpt>
            <trkpt lat="47.225543007" lon="4.930844428">
                <ele>435.441986</ele>
                <time>2017-03-21T09:27:57Z</time>
            </trkpt>
            <trkpt lat="47.225505767" lon="4.930999518">
                <ele>440.231110</ele>
                <time>2017-03-21T09:28:12Z</time>
            </trkpt>
            <trkpt lat="47.225432759" lon="4.931104565">
                <ele>441.531250</ele>
                <time>2017-03-21T09:28:19Z</time>
            </trkpt>
            <trkpt lat="47.225350281" lon="4.931176482">
                <ele>440.112549</ele>
                <time>2017-03-21T09:28:27Z</time>
            </trkpt>
            <trkpt lat="47.225247338" lon="4.931234723">
                <ele>437.617218</ele>
                <time>2017-03-21T09:28:42Z</time>
            </trkpt>
            <trkpt lat="47.225145451" lon="4.931262815">
                <ele>434.655243</ele>
                <time>2017-03-21T09:28:58Z</time>
            </trkpt>
            <trkpt lat="47.225026706" lon="4.931290091">
                <ele>429.030304</ele>
                <time>2017-03-21T09:29:15Z</time>
            </trkpt>
            <trkpt lat="47.224940006" lon="4.931393237">
                <ele>426.096375</ele>
                <time>2017-03-21T09:29:29Z</time>
            </trkpt>
            <trkpt lat="47.224863060" lon="4.931562916">
                <ele>425.177429</ele>
                <time>2017-03-21T09:29:43Z</time>
            </trkpt>
            <trkpt lat="47.224808220" lon="4.931750181">
                <ele>426.117676</ele>
                <time>2017-03-21T09:29:53Z</time>
            </trkpt>
            <trkpt lat="47.224786538" lon="4.931963826">
                <ele>430.825104</ele>
                <time>2017-03-21T09:29:59Z</time>
            </trkpt>
            <trkpt lat="47.224726077" lon="4.932150818">
                <ele>433.065826</ele>
                <time>2017-03-21T09:30:16Z</time>
            </trkpt>
            <trkpt lat="47.224716004" lon="4.932348510">
                <ele>439.186890</ele>
                <time>2017-03-21T09:30:30Z</time>
            </trkpt>
            <trkpt lat="47.224716983" lon="4.932554996">
                <ele>443.255615</ele>
                <time>2017-03-21T09:30:41Z</time>
            </trkpt>
            <trkpt lat="47.224717112" lon="4.932742808">
                <ele>445.872101</ele>
                <time>2017-03-21T09:30:45Z</time>
            </trkpt>
            <trkpt lat="47.224755334" lon="4.932956547">
                <ele>449.946747</ele>
                <time>2017-03-21T09:31:00Z</time>
            </trkpt>
            <trkpt lat="47.224755118" lon="4.933110100">
                <ele>452.095886</ele>
                <time>2017-03-21T09:31:06Z</time>
            </trkpt>
            <trkpt lat="47.224639496" lon="4.933158718">
                <ele>450.101379</ele>
                <time>2017-03-21T09:31:19Z</time>
            </trkpt>
            <trkpt lat="47.224579481" lon="4.933177913">
                <ele>448.296448</ele>
                <time>2017-03-21T09:31:25Z</time>
            </trkpt>
            <trkpt lat="47.224500584" lon="4.933172073">
                <ele>443.222748</ele>
                <time>2017-03-21T09:31:28Z</time>
            </trkpt>
            <trkpt lat="47.224431854" lon="4.933226542">
                <ele>440.104492</ele>
                <time>2017-03-21T09:31:40Z</time>
            </trkpt>
            <trkpt lat="47.224378567" lon="4.933423921">
                <ele>440.868439</ele>
                <time>2017-03-21T09:31:50Z</time>
            </trkpt>
            <trkpt lat="47.224379741" lon="4.933632966">
                <ele>445.493927</ele>
                <time>2017-03-21T09:32:05Z</time>
            </trkpt>
            <trkpt lat="47.224402185" lon="4.933794869">
                <ele>449.829102</ele>
                <time>2017-03-21T09:32:21Z</time>
            </trkpt>
            <trkpt lat="47.224415783" lon="4.933939409">
                <ele>452.296387</ele>
                <time>2017-03-21T09:32:28Z</time>
            </trkpt>
            <trkpt lat="47.224394942" lon="4.934116559">
                <ele>453.068542</ele>
                <time>2017-03-21T09:32:34Z</time>
            </trkpt>
            <trkpt lat="47.224353505" lon="4.934240486">
                <ele>452.105377</ele>
                <time>2017-03-21T09:32:49Z</time>
            </trkpt>
            <trkpt lat="47.224310925" lon="4.934411813">
                <ele>452.276794</ele>
                <time>2017-03-21T09:33:01Z</time>
            </trkpt>
            <trkpt lat="47.224255670" lon="4.934555705">
                <ele>452.423737</ele>
                <time>2017-03-21T09:33:03Z</time>
            </trkpt>
            <trkpt lat="47.224247265" lon="4.934679159">
                <ele>454.541260</ele>
                <time>2017-03-21T09:33:19Z</time>
            </trkpt>
            <trkpt lat="47.224149324" lon="4.934781753">
                <ele>453.763245</ele>
                <time>2017-03-21T09:33:33Z</time>
            </trkpt>
            <trkpt lat="47.224050825" lon="4.934909092">
                <ele>451.449615</ele>
                <time>2017-03-21T09:33:46Z</time>
            </trkpt>
            <trkpt lat="47.223954742" lon="4.934929201">
                <ele>444.422058</ele>
                <time>2017-03-21T09:33:49Z</time>
            </trkpt>
            <trkpt lat="47.223884896" lon="4.935033157">
                <ele>442.016571</ele>
                <time>2017-03-21T09:33:53Z</time>
            </trkpt>
            <trkpt lat="47.223906666" lon="4.935175152">
                <ele>446.089203</ele>
                <time>2017-03-21T09:34:10Z</time>
            </trkpt>
            <trkpt lat="47.223889817" lon="4.935314148">
                <ele>447.377136</ele>
                <time>2017-03-21T09:34:13Z</time>
            </trkpt>
            <trkpt lat="47.223873977" lon="4.935436333">
                <ele>448.567505</ele>
                <time>2017-03-21T09:34:28Z</time>
            </trkpt>
            <trkpt lat="47.223802898" lon="4.935498610">
                <ele>445.853729</ele>
                <time>2017-03-21T09:34:35Z</time>
            </trkpt>
            <trkpt lat="47.223769815" lon="4.935646876">
                <ele>447.440002</ele>
                <time>2017-03-21T09:34:44Z</time>
            </trkpt>
            <trkpt lat="47.223666357" lon="4.935735818">
                <ele>444.521698</ele>
                <time>2017-03-21T09:35:00Z</time>
            </trkpt>
            <trkpt lat="47.223651269" lon="4.935845621">
                <ele>446.058167</ele>
                <time>2017-03-21T09:35:14Z</time>
            </trkpt>
            <trkpt lat="47.223618245" lon="4.935964057">
                <ele>446.920807</ele>
                <time>2017-03-21T09:35:26Z</time>
            </trkpt>
            <trkpt lat="47.223543897" lon="4.936020216">
                <ele>444.089264</ele>
                <time>2017-03-21T09:35:32Z</time>
            </trkpt>
            <trkpt lat="47.223491510" lon="4.936094061">
                <ele>443.099670</ele>
                <time>2017-03-21T09:35:46Z</time>
            </trkpt>
            <trkpt lat="47.223443985" lon="4.936165642">
                <ele>442.721924</ele>
                <time>2017-03-21T09:35:59Z</time>
            </trkpt>
            <trkpt lat="47.223436022" lon="4.936171258">
                <ele>442.428253</ele>
                <time>2017-03-21T09:36:00Z</time>
            </trkpt>
            <trkpt lat="47.223433256" lon="4.936313247">
                <ele>446.331970</ele>
                <time>2017-03-21T09:36:13Z</time>
            </trkpt>
            <trkpt lat="47.223434094" lon="4.936325736">
                <ele>446.670502</ele>
                <time>2017-03-21T09:36:14Z</time>
            </trkpt>
            <trkpt lat="47.223443314" lon="4.936430007">
                <ele>449.126343</ele>
                <time>2017-03-21T09:36:21Z</time>
            </trkpt>
            <trkpt lat="47.223409284" lon="4.936651792">
                <ele>452.415466</ele>
                <time>2017-03-21T09:36:38Z</time>
            </trkpt>
            <trkpt lat="47.223437028" lon="4.936736114">
                <ele>454.902344</ele>
                <time>2017-03-21T09:36:48Z</time>
            </trkpt>
            <trkpt lat="47.223479505" lon="4.936797069">
                <ele>457.203339</ele>
                <time>2017-03-21T09:36:53Z</time>
            </trkpt>
            <trkpt lat="47.223510059" lon="4.936938928">
                <ele>460.337677</ele>
                <time>2017-03-21T09:37:02Z</time>
            </trkpt>
            <trkpt lat="47.223478245" lon="4.937102530">
                <ele>460.881683</ele>
                <time>2017-03-21T09:37:13Z</time>
            </trkpt>
            <trkpt lat="47.223396787" lon="4.937222433">
                <ele>460.226379</ele>
                <time>2017-03-21T09:37:21Z</time>
            </trkpt>
            <trkpt lat="47.223304091" lon="4.937312873">
                <ele>459.605499</ele>
                <time>2017-03-21T09:37:27Z</time>
            </trkpt>
            <trkpt lat="47.223187762" lon="4.937261824">
                <ele>457.632141</ele>
                <time>2017-03-21T09:37:42Z</time>
            </trkpt>
            <trkpt lat="47.223106862" lon="4.937356982">
                <ele>456.490906</ele>
                <time>2017-03-21T09:37:56Z</time>
            </trkpt>
            <trkpt lat="47.223020529" lon="4.937443618">
                <ele>454.971161</ele>
                <time>2017-03-21T09:38:02Z</time>
            </trkpt>
            <trkpt lat="47.222956672" lon="4.937531346">
                <ele>455.000671</ele>
                <time>2017-03-21T09:38:06Z</time>
            </trkpt>
            <trkpt lat="47.222910644" lon="4.937676145">
                <ele>456.180573</ele>
                <time>2017-03-21T09:38:13Z</time>
            </trkpt>
            <trkpt lat="47.222876927" lon="4.937824733">
                <ele>456.563812</ele>
                <time>2017-03-21T09:38:18Z</time>
            </trkpt>
            <trkpt lat="47.222806893" lon="4.937936932">
                <ele>456.319183</ele>
                <time>2017-03-21T09:38:28Z</time>
            </trkpt>
            <trkpt lat="47.222720932" lon="4.938007071">
                <ele>455.771362</ele>
                <time>2017-03-21T09:38:42Z</time>
            </trkpt>
            <trkpt lat="47.222633958" lon="4.938103706">
                <ele>454.372101</ele>
                <time>2017-03-21T09:38:46Z</time>
            </trkpt>
            <trkpt lat="47.222563718" lon="4.938171851">
                <ele>453.023987</ele>
                <time>2017-03-21T09:38:52Z</time>
            </trkpt>
            <trkpt lat="47.222475708" lon="4.938275954">
                <ele>452.114685</ele>
                <time>2017-03-21T09:39:05Z</time>
            </trkpt>
            <trkpt lat="47.222465649" lon="4.938277211">
                <ele>451.877869</ele>
                <time>2017-03-21T09:39:12Z</time>
            </trkpt>
            <trkpt lat="47.222390779" lon="4.938428660">
                <ele>451.147827</ele>
                <time>2017-03-21T09:39:18Z</time>
            </trkpt>
            <trkpt lat="47.222391561" lon="4.938643385">
                <ele>453.023132</ele>
                <time>2017-03-21T09:39:35Z</time>
            </trkpt>
            <trkpt lat="47.222415192" lon="4.938842706">
                <ele>454.849365</ele>
                <time>2017-03-21T09:39:49Z</time>
            </trkpt>
            <trkpt lat="47.222421058" lon="4.939065948">
                <ele>454.766602</ele>
                <time>2017-03-21T09:41:06Z</time>
            </trkpt>
            <trkpt lat="47.222493153" lon="4.939127240">
                <ele>454.992126</ele>
                <time>2017-03-21T09:41:27Z</time>
            </trkpt>
            <trkpt lat="47.222558350" lon="4.939229496">
                <ele>454.976929</ele>
                <time>2017-03-21T09:41:33Z</time>
            </trkpt>
            <trkpt lat="47.222634413" lon="4.939348795">
                <ele>454.902344</ele>
                <time>2017-03-21T09:41:39Z</time>
            </trkpt>
            <trkpt lat="47.222727892" lon="4.939444169">
                <ele>454.960724</ele>
                <time>2017-03-21T09:41:43Z</time>
            </trkpt>
            <trkpt lat="47.222849653" lon="4.939532661">
                <ele>455.138672</ele>
                <time>2017-03-21T09:41:57Z</time>
            </trkpt>
            <trkpt lat="47.222939188" lon="4.939553528">
                <ele>455.464203</ele>
                <time>2017-03-21T09:42:04Z</time>
            </trkpt>
            <trkpt lat="47.223059087" lon="4.939724503">
                <ele>455.191925</ele>
                <time>2017-03-21T09:42:07Z</time>
            </trkpt>
            <trkpt lat="47.223187398" lon="4.939772028">
                <ele>455.571289</ele>
                <time>2017-03-21T09:42:21Z</time>
            </trkpt>
            <trkpt lat="47.223313288" lon="4.939926781">
                <ele>455.285248</ele>
                <time>2017-03-21T09:42:34Z</time>
            </trkpt>
            <trkpt lat="47.223457564" lon="4.939986449">
                <ele>455.474457</ele>
                <time>2017-03-21T09:42:48Z</time>
            </trkpt>
            <trkpt lat="47.223580961" lon="4.940030628">
                <ele>455.654510</ele>
                <time>2017-03-21T09:43:00Z</time>
            </trkpt>
            <trkpt lat="47.223669378" lon="4.940100987">
                <ele>455.606262</ele>
                <time>2017-03-21T09:43:09Z</time>
            </trkpt>
            <trkpt lat="47.223716042" lon="4.940276661">
                <ele>454.857605</ele>
                <time>2017-03-21T09:43:13Z</time>
            </trkpt>
            <trkpt lat="47.223756527" lon="4.940476808">
                <ele>453.720154</ele>
                <time>2017-03-21T09:43:20Z</time>
            </trkpt>
            <trkpt lat="47.223751500" lon="4.940699513">
                <ele>452.196350</ele>
                <time>2017-03-21T09:43:30Z</time>
            </trkpt>
            <trkpt lat="47.223754786" lon="4.940970819">
                <ele>450.440460</ele>
                <time>2017-03-21T09:43:43Z</time>
            </trkpt>
            <trkpt lat="47.223756295" lon="4.941234430">
                <ele>448.733490</ele>
                <time>2017-03-21T09:43:54Z</time>
            </trkpt>
            <trkpt lat="47.223764326" lon="4.941377245">
                <ele>447.913544</ele>
                <time>2017-03-21T09:44:01Z</time>
            </trkpt>
            <trkpt lat="47.223766592" lon="4.941525988">
                <ele>447.001434</ele>
                <time>2017-03-21T09:44:07Z</time>
            </trkpt>
            <trkpt lat="47.223763612" lon="4.941657962">
                <ele>446.096191</ele>
                <time>2017-03-21T09:44:12Z</time>
            </trkpt>
            <trkpt lat="47.223715120" lon="4.941812493">
                <ele>444.469421</ele>
                <time>2017-03-21T09:44:21Z</time>
            </trkpt>
            <trkpt lat="47.223634030" lon="4.941915893">
                <ele>442.948914</ele>
                <time>2017-03-21T09:44:24Z</time>
            </trkpt>
            <trkpt lat="47.223540770" lon="4.942059988">
                <ele>441.291046</ele>
                <time>2017-03-21T09:44:41Z</time>
            </trkpt>
            <trkpt lat="47.223481597" lon="4.942189226">
                <ele>440.135559</ele>
                <time>2017-03-21T09:44:46Z</time>
            </trkpt>
            <trkpt lat="47.223383277" lon="4.942308301">
                <ele>438.123749</ele>
                <time>2017-03-21T09:45:01Z</time>
            </trkpt>
            <trkpt lat="47.223296008" lon="4.942436171">
                <ele>436.013763</ele>
                <time>2017-03-21T09:45:13Z</time>
            </trkpt>
            <trkpt lat="47.223207622" lon="4.942613531">
                <ele>433.498749</ele>
                <time>2017-03-21T09:45:26Z</time>
            </trkpt>
            <trkpt lat="47.223108742" lon="4.942757349">
                <ele>431.113739</ele>
                <time>2017-03-21T09:45:38Z</time>
            </trkpt>
            <trkpt lat="47.223021100" lon="4.942901714">
                <ele>428.743011</ele>
                <time>2017-03-21T09:45:40Z</time>
            </trkpt>
            <trkpt lat="47.222944883" lon="4.943038378">
                <ele>425.864990</ele>
                <time>2017-03-21T09:45:47Z</time>
            </trkpt>
            <trkpt lat="47.222834018" lon="4.943214641">
                <ele>422.247009</ele>
                <time>2017-03-21T09:46:00Z</time>
            </trkpt>
            <trkpt lat="47.222758360" lon="4.943326559">
                <ele>420.158997</ele>
                <time>2017-03-21T09:46:07Z</time>
            </trkpt>
            <trkpt lat="47.222671509" lon="4.943445241">
                <ele>418.033417</ele>
                <time>2017-03-21T09:46:20Z</time>
            </trkpt>
            <trkpt lat="47.222582242" lon="4.943587231">
                <ele>416.124451</ele>
                <time>2017-03-21T09:46:34Z</time>
            </trkpt>
            <trkpt lat="47.222548241" lon="4.943663132">
                <ele>414.832489</ele>
                <time>2017-03-21T09:46:50Z</time>
            </trkpt>
            <trkpt lat="47.222498674" lon="4.943710444">
                <ele>411.820007</ele>
                <time>2017-03-21T09:47:05Z</time>
            </trkpt>
            <trkpt lat="47.222445700" lon="4.943826115">
                <ele>408.602509</ele>
                <time>2017-03-21T09:47:17Z</time>
            </trkpt>
            <trkpt lat="47.222413011" lon="4.943878837">
                <ele>406.617493</ele>
                <time>2017-03-21T09:47:24Z</time>
            </trkpt>
            <trkpt lat="47.222338681" lon="4.943974959">
                <ele>402.157501</ele>
                <time>2017-03-21T09:47:26Z</time>
            </trkpt>
            <trkpt lat="47.222234553" lon="4.944102003">
                <ele>395.907501</ele>
                <time>2017-03-21T09:47:36Z</time>
            </trkpt>
            <trkpt lat="47.222277455" lon="4.944194921">
                <ele>398.214233</ele>
                <time>2017-03-21T09:47:41Z</time>
            </trkpt>
            <trkpt lat="47.222337588" lon="4.944272165">
                <ele>401.300934</ele>
                <time>2017-03-21T09:47:51Z</time>
            </trkpt>
            <trkpt lat="47.222409658" lon="4.944441598">
                <ele>404.478760</ele>
                <time>2017-03-21T09:48:08Z</time>
            </trkpt>
            <trkpt lat="47.222403365" lon="4.944597400">
                <ele>403.301086</ele>
                <time>2017-03-21T09:48:13Z</time>
            </trkpt>
            <trkpt lat="47.222402282" lon="4.944741586">
                <ele>402.431244</ele>
                <time>2017-03-21T09:48:26Z</time>
            </trkpt>
            <trkpt lat="47.222424243" lon="4.944901094">
                <ele>401.771545</ele>
                <time>2017-03-21T09:48:39Z</time>
            </trkpt>
            <trkpt lat="47.222489873" lon="4.945036378">
                <ele>402.402588</ele>
                <time>2017-03-21T09:48:53Z</time>
            </trkpt>
            <trkpt lat="47.222525357" lon="4.945173091">
                <ele>401.629120</ele>
                <time>2017-03-21T09:48:59Z</time>
            </trkpt>
            <trkpt lat="47.222562628" lon="4.945292613">
                <ele>400.349609</ele>
                <time>2017-03-21T09:49:10Z</time>
            </trkpt>
            <trkpt lat="47.222624486" lon="4.945462262">
                <ele>399.216644</ele>
                <time>2017-03-21T09:49:45Z</time>
            </trkpt>
            <trkpt lat="47.222657256" lon="4.945559351">
                <ele>398.360443</ele>
                <time>2017-03-21T09:50:11Z</time>
            </trkpt>
            <trkpt lat="47.222693469" lon="4.945631074">
                <ele>397.915253</ele>
                <time>2017-03-21T09:50:28Z</time>
            </trkpt>
            <trkpt lat="47.222758094" lon="4.945696872">
                <ele>398.681580</ele>
                <time>2017-03-21T09:50:41Z</time>
            </trkpt>
            <trkpt lat="47.222840907" lon="4.945661835">
                <ele>402.361084</ele>
                <time>2017-03-21T09:51:06Z</time>
            </trkpt>
            <trkpt lat="47.222917625" lon="4.945737184">
                <ele>403.662048</ele>
                <time>2017-03-21T09:51:11Z</time>
            </trkpt>
            <trkpt lat="47.222971392" lon="4.945847150">
                <ele>403.549988</ele>
                <time>2017-03-21T09:51:19Z</time>
            </trkpt>
            <trkpt lat="47.223041269" lon="4.945990929">
                <ele>402.705994</ele>
                <time>2017-03-21T09:51:30Z</time>
            </trkpt>
            <trkpt lat="47.223100654" lon="4.946101169">
                <ele>402.635010</ele>
                <time>2017-03-21T09:51:41Z</time>
            </trkpt>
            <trkpt lat="47.223183449" lon="4.946171263">
                <ele>404.012756</ele>
                <time>2017-03-21T09:51:55Z</time>
            </trkpt>
            <trkpt lat="47.223262864" lon="4.946142104">
                <ele>406.536987</ele>
                <time>2017-03-21T09:52:09Z</time>
            </trkpt>
            <trkpt lat="47.223411387" lon="4.946041998">
                <ele>411.088654</ele>
                <time>2017-03-21T09:52:13Z</time>
            </trkpt>
            <trkpt lat="47.223492690" lon="4.946178079">
                <ele>410.846588</ele>
                <time>2017-03-21T09:52:16Z</time>
            </trkpt>
            <trkpt lat="47.223556388" lon="4.946346331">
                <ele>409.178986</ele>
                <time>2017-03-21T09:52:32Z</time>
            </trkpt>
            <trkpt lat="47.223564827" lon="4.946470604">
                <ele>407.407745</ele>
                <time>2017-03-21T09:52:36Z</time>
            </trkpt>
            <trkpt lat="47.223504502" lon="4.946532967">
                <ele>405.506409</ele>
                <time>2017-03-21T09:52:44Z</time>
            </trkpt>
            <trkpt lat="47.223470068" lon="4.946680676">
                <ele>402.434753</ele>
                <time>2017-03-21T09:52:50Z</time>
            </trkpt>
            <trkpt lat="47.223468125" lon="4.946784591">
                <ele>400.601440</ele>
                <time>2017-03-21T09:53:02Z</time>
            </trkpt>
            <trkpt lat="47.223465107" lon="4.946936974">
                <ele>397.950134</ele>
                <time>2017-03-21T09:53:09Z</time>
            </trkpt>
            <trkpt lat="47.223516572" lon="4.947072426">
                <ele>397.196442</ele>
                <time>2017-03-21T09:53:19Z</time>
            </trkpt>
            <trkpt lat="47.223575379" lon="4.947247313">
                <ele>396.374054</ele>
                <time>2017-03-21T09:53:34Z</time>
            </trkpt>
            <trkpt lat="47.223622965" lon="4.947381752">
                <ele>396.096710</ele>
                <time>2017-03-21T09:53:40Z</time>
            </trkpt>
            <trkpt lat="47.223630283" lon="4.947555515">
                <ele>394.044983</ele>
                <time>2017-03-21T09:53:54Z</time>
            </trkpt>
            <trkpt lat="47.223643406" lon="4.947721303">
                <ele>391.605011</ele>
                <time>2017-03-21T09:54:08Z</time>
            </trkpt>
            <trkpt lat="47.223632075" lon="4.947878346">
                <ele>388.500000</ele>
                <time>2017-03-21T09:54:16Z</time>
            </trkpt>
            <trkpt lat="47.223664407" lon="4.948036109">
                <ele>386.945007</ele>
                <time>2017-03-21T09:54:24Z</time>
            </trkpt>
            <trkpt lat="47.223725868" lon="4.948123600">
                <ele>387.639984</ele>
                <time>2017-03-21T09:54:35Z</time>
            </trkpt>
            <trkpt lat="47.223808682" lon="4.948187135">
                <ele>389.519989</ele>
                <time>2017-03-21T09:54:43Z</time>
            </trkpt>
            <trkpt lat="47.223865780" lon="4.948334942">
                <ele>386.549072</ele>
                <time>2017-03-21T09:54:46Z</time>
            </trkpt>
            <trkpt lat="47.223896694" lon="4.948460312">
                <ele>384.990479</ele>
                <time>2017-03-21T09:55:03Z</time>
            </trkpt>
            <trkpt lat="47.223948777" lon="4.948644517">
                <ele>383.444702</ele>
                <time>2017-03-21T09:55:07Z</time>
            </trkpt>
            <trkpt lat="47.223944668" lon="4.948825981">
                <ele>382.605927</ele>
                <time>2017-03-21T09:55:21Z</time>
            </trkpt>
            <trkpt lat="47.223935332" lon="4.948988110">
                <ele>381.206390</ele>
                <time>2017-03-21T09:55:34Z</time>
            </trkpt>
            <trkpt lat="47.223998260" lon="4.949191924">
                <ele>379.873322</ele>
                <time>2017-03-21T09:55:51Z</time>
            </trkpt>
            <trkpt lat="47.224033671" lon="4.949367059">
                <ele>378.666718</ele>
                <time>2017-03-21T09:56:06Z</time>
            </trkpt>
            <trkpt lat="47.224028455" lon="4.949564617">
                <ele>376.768280</ele>
                <time>2017-03-21T09:56:15Z</time>
            </trkpt>
            <trkpt lat="47.224065345" lon="4.949707162">
                <ele>376.179535</ele>
                <time>2017-03-21T09:56:31Z</time>
            </trkpt>
            <trkpt lat="47.224137086" lon="4.949768466">
                <ele>377.049225</ele>
                <time>2017-03-21T09:56:40Z</time>
            </trkpt>
            <trkpt lat="47.224173617" lon="4.949894112">
                <ele>376.974213</ele>
                <time>2017-03-21T09:56:43Z</time>
            </trkpt>
            <trkpt lat="47.224222321" lon="4.949979064">
                <ele>377.391571</ele>
                <time>2017-03-21T09:56:57Z</time>
            </trkpt>
            <trkpt lat="47.224234881" lon="4.950169600">
                <ele>375.703430</ele>
                <time>2017-03-21T09:57:00Z</time>
            </trkpt>
            <trkpt lat="47.224294823" lon="4.950255101">
                <ele>373.337128</ele>
                <time>2017-03-21T09:57:13Z</time>
            </trkpt>
            <trkpt lat="47.224307755" lon="4.950429141">
                <ele>370.990112</ele>
                <time>2017-03-21T09:57:19Z</time>
            </trkpt>
            <trkpt lat="47.224349905" lon="4.950555062">
                <ele>368.818237</ele>
                <time>2017-03-21T09:57:28Z</time>
            </trkpt>
            <trkpt lat="47.224420711" lon="4.950657609">
                <ele>366.747253</ele>
                <time>2017-03-21T09:57:42Z</time>
            </trkpt>
            <trkpt lat="47.224502569" lon="4.950768954">
                <ele>364.895447</ele>
                <time>2017-03-21T09:58:01Z</time>
            </trkpt>
            <trkpt lat="47.224566634" lon="4.950920719">
                <ele>363.544373</ele>
                <time>2017-03-21T09:58:13Z</time>
            </trkpt>
            <trkpt lat="47.224585559" lon="4.951078537">
                <ele>362.130554</ele>
                <time>2017-03-21T09:58:27Z</time>
            </trkpt>
            <trkpt lat="47.224560465" lon="4.951192917">
                <ele>361.226135</ele>
                <time>2017-03-21T09:58:45Z</time>
            </trkpt>
            <trkpt lat="47.224477112" lon="4.951147559">
                <ele>361.685425</ele>
                <time>2017-03-21T09:58:54Z</time>
            </trkpt>
            <trkpt lat="47.224401062" lon="4.951028239">
                <ele>363.343353</ele>
                <time>2017-03-21T09:59:10Z</time>
            </trkpt>
            <trkpt lat="47.224300291" lon="4.951006803">
                <ele>364.098938</ele>
                <time>2017-03-21T09:59:24Z</time>
            </trkpt>
            <trkpt lat="47.224211132" lon="4.950969419">
                <ele>365.209198</ele>
                <time>2017-03-21T09:59:38Z</time>
            </trkpt>
            <trkpt lat="47.224094065" lon="4.950922415">
                <ele>361.720428</ele>
                <time>2017-03-21T09:59:48Z</time>
            </trkpt>
            <trkpt lat="47.224045747" lon="4.951068690">
                <ele>356.814301</ele>
                <time>2017-03-21T09:59:59Z</time>
            </trkpt>
            <trkpt lat="47.224014473" lon="4.951207540">
                <ele>352.713776</ele>
                <time>2017-03-21T10:00:09Z</time>
            </trkpt>
            <trkpt lat="47.223988818" lon="4.951346665">
                <ele>348.881409</ele>
                <time>2017-03-21T10:01:17Z</time>
            </trkpt>
            <trkpt lat="47.223937428" lon="4.951460436">
                <ele>344.323273</ele>
                <time>2017-03-21T10:01:28Z</time>
            </trkpt>
            <trkpt lat="47.223878670" lon="4.951518187">
                <ele>340.570984</ele>
                <time>2017-03-21T10:01:41Z</time>
            </trkpt>
            <trkpt lat="47.223806251" lon="4.951612735">
                <ele>335.521362</ele>
                <time>2017-03-21T10:01:58Z</time>
            </trkpt>
            <trkpt lat="47.223748919" lon="4.951693118">
                <ele>331.194763</ele>
                <time>2017-03-21T10:02:10Z</time>
            </trkpt>
            <trkpt lat="47.223703824" lon="4.951787414">
                <ele>327.231720</ele>
                <time>2017-03-21T10:02:21Z</time>
            </trkpt>
            <trkpt lat="47.223653030" lon="4.951874837">
                <ele>323.399963</ele>
                <time>2017-03-21T10:02:31Z</time>
            </trkpt>
            <trkpt lat="47.223586477" lon="4.951999811">
                <ele>318.684448</ele>
                <time>2017-03-21T10:02:50Z</time>
            </trkpt>
            <trkpt lat="47.223516237" lon="4.952135347">
                <ele>314.150024</ele>
                <time>2017-03-21T10:03:11Z</time>
            </trkpt>
            <trkpt lat="47.223434805" lon="4.952211406">
                <ele>310.907745</ele>
                <time>2017-03-21T10:03:16Z</time>
            </trkpt>
            <trkpt lat="47.223362681" lon="4.952320419">
                <ele>308.357208</ele>
                <time>2017-03-21T10:03:26Z</time>
            </trkpt>
            <trkpt lat="47.223290399" lon="4.952377756">
                <ele>306.292999</ele>
                <time>2017-03-21T10:03:30Z</time>
            </trkpt>
            <trkpt lat="47.223226307" lon="4.952430977">
                <ele>306.439941</ele>
                <time>2017-03-21T10:03:39Z</time>
            </trkpt>
            <trkpt lat="47.223129747" lon="4.952538600">
                <ele>308.639069</ele>
                <time>2017-03-21T10:03:57Z</time>
            </trkpt>
            <trkpt lat="47.223065828" lon="4.952606247">
                <ele>310.237823</ele>
                <time>2017-03-21T10:04:13Z</time>
            </trkpt>
            <trkpt lat="47.223056468" lon="4.952770936">
                <ele>310.716095</ele>
            </trkpt>
            <trkpt lat="47.223090938" lon="4.952987312">
                <ele>309.996613</ele>
            </trkpt>
            <trkpt lat="47.223119602" lon="4.953211661">
                <ele>309.319000</ele>
            </trkpt>
            <trkpt lat="47.223153884" lon="4.953436285">
                <ele>308.271118</ele>
            </trkpt>
            <trkpt lat="47.223188166" lon="4.953660909">
                <ele>307.569702</ele>
            </trkpt>
            <trkpt lat="47.223211770" lon="4.953860240">
                <ele>307.456451</ele>
            </trkpt>
            <trkpt lat="47.223236123" lon="4.954026578">
                <ele>307.414001</ele>
            </trkpt>
            <trkpt lat="47.223254108" lon="4.954225634">
                <ele>307.988617</ele>
            </trkpt>
            <trkpt lat="47.223288201" lon="4.954458508">
                <ele>308.221191</ele>
            </trkpt>
            <trkpt lat="47.223311992" lon="4.954649591">
                <ele>308.191498</ele>
            </trkpt>
            <trkpt lat="47.223335407" lon="4.954857170">
                <ele>308.212494</ele>
            </trkpt>
            <trkpt lat="47.223360334" lon="4.955086950">
                <ele>308.539368</ele>
            </trkpt>
            <trkpt lat="47.223397410" lon="4.955347389">
                <ele>308.377045</ele>
            </trkpt>
            <trkpt lat="47.223431314" lon="4.955588512">
                <ele>308.255890</ele>
            </trkpt>
            <trkpt lat="47.223492751" lon="4.955855755">
                <ele>307.654236</ele>
            </trkpt>
            <trkpt lat="47.223549879" lon="4.956064986">
                <ele>307.027008</ele>
            </trkpt>
            <trkpt lat="47.223595581" lon="4.956281915">
                <ele>306.666870</ele>
            </trkpt>
            <trkpt lat="47.223646156" lon="4.956475915">
                <ele>306.085297</ele>
            </trkpt>
            <trkpt lat="47.223713128" lon="4.956646236">
                <ele>305.497253</ele>
            </trkpt>
            <trkpt lat="47.223797869" lon="4.956787261">
                <ele>304.286560</ele>
            </trkpt>
            <trkpt lat="47.223861739" lon="4.956947279">
                <ele>302.982300</ele>
            </trkpt>
            <trkpt lat="47.223800676" lon="4.957158985">
                <ele>304.204376</ele>
            </trkpt>
            <trkpt lat="47.223756470" lon="4.957371515">
                <ele>305.160431</ele>
            </trkpt>
            <trkpt lat="47.223735508" lon="4.957572520">
                <ele>305.708374</ele>
            </trkpt>
            <trkpt lat="47.223720085" lon="4.957761196">
                <ele>306.117462</ele>
            </trkpt>
            <trkpt lat="47.223698773" lon="4.957930198">
                <ele>306.665192</ele>
            </trkpt>
            <trkpt lat="47.223707093" lon="4.958130587">
                <ele>306.494598</ele>
            </trkpt>
            <trkpt lat="47.223720672" lon="4.958381793">
                <ele>306.048828</ele>
            </trkpt>
            <trkpt lat="47.223730043" lon="4.958534523">
                <ele>305.706818</ele>
            </trkpt>
            <trkpt lat="47.223736219" lon="4.958757777">
                <ele>305.438629</ele>
            </trkpt>
            <trkpt lat="47.223734901" lon="4.959063239">
                <ele>303.482635</ele>
            </trkpt>
            <trkpt lat="47.223730588" lon="4.959252950">
                <ele>302.234863</ele>
            </trkpt>
            <trkpt lat="47.223660158" lon="4.959381619">
                <ele>302.665314</ele>
            </trkpt>
            <trkpt lat="47.223543274" lon="4.959574071">
                <ele>303.840637</ele>
            </trkpt>
            <trkpt lat="47.223404102" lon="4.959757173">
                <ele>309.408752</ele>
            </trkpt>
            <trkpt lat="47.223282536" lon="4.959908108">
                <ele>313.605621</ele>
            </trkpt>
            <trkpt lat="47.223161721" lon="4.960026049">
                <ele>317.642029</ele>
            </trkpt>
            <trkpt lat="47.223011497" lon="4.960200350">
                <ele>322.100372</ele>
            </trkpt>
            <trkpt lat="47.222878505" lon="4.960358979">
                <ele>326.067444</ele>
            </trkpt>
            <trkpt lat="47.222743637" lon="4.960600089">
                <ele>328.546295</ele>
            </trkpt>
            <trkpt lat="47.222661217" lon="4.960761196">
                <ele>329.638000</ele>
            </trkpt>
            <trkpt lat="47.222549387" lon="4.960978662">
                <ele>330.136566</ele>
            </trkpt>
            <trkpt lat="47.222438495" lon="4.961154886">
                <ele>330.574310</ele>
            </trkpt>
            <trkpt lat="47.222346626" lon="4.961323757">
                <ele>330.298859</ele>
            </trkpt>
            <trkpt lat="47.222221820" lon="4.961545710">
                <ele>329.550903</ele>
            </trkpt>
            <trkpt lat="47.222115367" lon="4.961758338">
                <ele>328.085510</ele>
            </trkpt>
            <trkpt lat="47.222090894" lon="4.961993136">
                <ele>324.037964</ele>
            </trkpt>
            <trkpt lat="47.222015888" lon="4.962174578">
                <ele>322.486511</ele>
            </trkpt>
            <trkpt lat="47.221956881" lon="4.962295542">
                <ele>321.520569</ele>
            </trkpt>
            <trkpt lat="47.221891315" lon="4.962457471">
                <ele>319.963806</ele>
            </trkpt>
            <trkpt lat="47.221808329" lon="4.962643316">
                <ele>318.057007</ele>
            </trkpt>
            <trkpt lat="47.221731338" lon="4.962812940">
                <ele>316.998993</ele>
            </trkpt>
            <trkpt lat="47.221661091" lon="4.962933352">
                <ele>316.476624</ele>
            </trkpt>
            <trkpt lat="47.221556755" lon="4.963068605">
                <ele>315.574188</ele>
            </trkpt>
            <trkpt lat="47.221469463" lon="4.963196437">
                <ele>314.521576</ele>
            </trkpt>
            <trkpt lat="47.221371497" lon="4.963298974">
                <ele>313.604767</ele>
            </trkpt>
            <trkpt lat="47.221272966" lon="4.963426253">
                <ele>312.345795</ele>
            </trkpt>
            <trkpt lat="47.221252916" lon="4.963565640">
                <ele>310.854401</ele>
            </trkpt>
            <trkpt lat="47.221328015" lon="4.963726210">
                <ele>308.604675</ele>
            </trkpt>
            <trkpt lat="47.221375331" lon="4.963886105">
                <ele>306.334686</ele>
            </trkpt>
            <trkpt lat="47.221439620" lon="4.964121552">
                <ele>303.038971</ele>
            </trkpt>
            <trkpt lat="47.221478261" lon="4.964312157">
                <ele>300.693909</ele>
            </trkpt>
            <trkpt lat="47.221529689" lon="4.964504020">
                <ele>298.465729</ele>
            </trkpt>
            <trkpt lat="47.221588148" lon="4.964702083">
                <ele>296.760010</ele>
            </trkpt>
            <trkpt lat="47.221654365" lon="4.964953708">
                <ele>295.306244</ele>
            </trkpt>
            <trkpt lat="47.221717131" lon="4.965165537">
                <ele>293.761230</ele>
            </trkpt>
            <trkpt lat="47.221785105" lon="4.965391819">
                <ele>292.051361</ele>
            </trkpt>
            <trkpt lat="47.221839605" lon="4.965553936">
                <ele>290.845001</ele>
            </trkpt>
            <trkpt lat="47.221884537" lon="4.965718732">
                <ele>289.818817</ele>
            </trkpt>
            <trkpt lat="47.221920487" lon="4.965869127">
                <ele>288.985199</ele>
            </trkpt>
            <trkpt lat="47.221962567" lon="4.965965487">
                <ele>288.420013</ele>
            </trkpt>
            <trkpt lat="47.222042195" lon="4.966070848">
                <ele>287.741180</ele>
            </trkpt>
            <trkpt lat="47.222143915" lon="4.966185617">
                <ele>286.952484</ele>
            </trkpt>
            <trkpt lat="47.222247301" lon="4.966259692">
                <ele>286.272491</ele>
            </trkpt>
            <trkpt lat="47.222353492" lon="4.966369314">
                <ele>285.477509</ele>
            </trkpt>
            <trkpt lat="47.222464560" lon="4.966462702">
                <ele>284.709991</ele>
            </trkpt>
            <trkpt lat="47.222568125" lon="4.966578031">
                <ele>283.557495</ele>
            </trkpt>
            <trkpt lat="47.222674945" lon="4.966670740">
                <ele>282.321899</ele>
            </trkpt>
            <trkpt lat="47.222777702" lon="4.966761731">
                <ele>281.123169</ele>
            </trkpt>
            <trkpt lat="47.222899442" lon="4.966850285">
                <ele>279.986755</ele>
            </trkpt>
            <trkpt lat="47.223026613" lon="4.966947364">
                <ele>279.677032</ele>
            </trkpt>
            <trkpt lat="47.223142357" lon="4.967052139">
                <ele>279.705200</ele>
            </trkpt>
            <trkpt lat="47.223241996" lon="4.967123094">
                <ele>279.799835</ele>
            </trkpt>
            <trkpt lat="47.223341071" lon="4.967218794">
                <ele>279.936493</ele>
            </trkpt>
            <trkpt lat="47.223456815" lon="4.967323570">
                <ele>280.179993</ele>
            </trkpt>
            <trkpt lat="47.223555702" lon="4.967427519">
                <ele>280.311249</ele>
            </trkpt>
            <trkpt lat="47.223665639" lon="4.967540268">
                <ele>280.398743</ele>
            </trkpt>
            <trkpt lat="47.223759094" lon="4.967635693">
                <ele>280.476257</ele>
            </trkpt>
            <trkpt lat="47.223855788" lon="4.967719149">
                <ele>280.486237</ele>
            </trkpt>
            <trkpt lat="47.223946382" lon="4.967810048">
                <ele>280.356262</ele>
            </trkpt>
            <trkpt lat="47.223995825" lon="4.967862023">
                <ele>280.281250</ele>
            </trkpt>
            <trkpt lat="47.224060833" lon="4.967724840">
                <ele>280.493744</ele>
            </trkpt>
            <trkpt lat="47.224081265" lon="4.967568951">
                <ele>280.731262</ele>
            </trkpt>
            <trkpt lat="47.224157788" lon="4.967484288">
                <ele>280.864990</ele>
            </trkpt>
            <trkpt lat="47.224245348" lon="4.967527469">
                <ele>280.806244</ele>
            </trkpt>
            <trkpt lat="47.224312024" lon="4.967563776">
                <ele>280.851257</ele>
            </trkpt>
            <trkpt lat="47.224401366" lon="4.967592939">
                <ele>281.013763</ele>
            </trkpt>
            <trkpt lat="47.224517674" lon="4.967672973">
                <ele>281.161255</ele>
            </trkpt>
            <trkpt lat="47.224612634" lon="4.967702413">
                <ele>281.338745</ele>
            </trkpt>
            <trkpt lat="47.224706842" lon="4.967764846">
                <ele>281.461243</ele>
            </trkpt>
            <trkpt lat="47.224779138" lon="4.967801430">
                <ele>281.348785</ele>
            </trkpt>
            <trkpt lat="47.224885148" lon="4.967839671">
                <ele>281.146118</ele>
            </trkpt>
            <trkpt lat="47.224974678" lon="4.967860587">
                <ele>280.982880</ele>
            </trkpt>
            <trkpt lat="47.225064207" lon="4.967881502">
                <ele>280.809631</ele>
            </trkpt>
            <trkpt lat="47.225148118" lon="4.967902142">
                <ele>280.633301</ele>
            </trkpt>
            <trkpt lat="47.225233018" lon="4.967929032">
                <ele>280.499115</ele>
            </trkpt>
            <trkpt lat="47.225326800" lon="4.967960470">
                <ele>280.376923</ele>
            </trkpt>
            <trkpt lat="47.225466525" lon="4.968000369">
                <ele>280.239258</ele>
            </trkpt>
            <trkpt lat="47.225578343" lon="4.968030639">
                <ele>280.153809</ele>
            </trkpt>
            <trkpt lat="47.225684917" lon="4.968044135">
                <ele>279.961243</ele>
            </trkpt>
            <trkpt lat="47.225764526" lon="4.968006759">
                <ele>279.848755</ele>
            </trkpt>
            <trkpt lat="47.225872606" lon="4.967954266">
                <ele>279.701263</ele>
            </trkpt>
            <trkpt lat="47.225973750" lon="4.967959238">
                <ele>279.476257</ele>
            </trkpt>
            <trkpt lat="47.225974665" lon="4.968165729">
                <ele>279.174377</ele>
            </trkpt>
            <trkpt lat="47.225982140" lon="4.968331253">
                <ele>279.111420</ele>
            </trkpt>
            <trkpt lat="47.225982678" lon="4.968554241">
                <ele>279.055267</ele>
            </trkpt>
            <trkpt lat="47.225983404" lon="4.968768981">
                <ele>279.007324</ele>
            </trkpt>
            <trkpt lat="47.225983941" lon="4.968991969">
                <ele>278.718750</ele>
            </trkpt>
            <trkpt lat="47.225989533" lon="4.969239980">
                <ele>278.343750</ele>
            </trkpt>
            <trkpt lat="47.225985580" lon="4.969413200">
                <ele>278.081238</ele>
            </trkpt>
            <trkpt lat="47.225980309" lon="4.969644161">
                <ele>277.462494</ele>
            </trkpt>
            <trkpt lat="47.225947695" lon="4.969840745">
                <ele>276.862488</ele>
            </trkpt>
            <trkpt lat="47.225904595" lon="4.970003782">
                <ele>276.362488</ele>
            </trkpt>
            <trkpt lat="47.225878729" lon="4.970151151">
                <ele>275.956238</ele>
            </trkpt>
            <trkpt lat="47.225880394" lon="4.970324647">
                <ele>275.693756</ele>
            </trkpt>
            <trkpt lat="47.225887489" lon="4.970506668">
                <ele>275.418762</ele>
            </trkpt>
            <trkpt lat="47.225888212" lon="4.970721408">
                <ele>275.093750</ele>
            </trkpt>
            <trkpt lat="47.225895683" lon="4.970886932">
                <ele>274.721863</ele>
            </trkpt>
            <trkpt lat="47.225893046" lon="4.971002412">
                <ele>274.410370</ele>
            </trkpt>
            <trkpt lat="47.225906513" lon="4.971151716">
                <ele>273.987640</ele>
            </trkpt>
            <trkpt lat="47.225910863" lon="4.971267460">
                <ele>273.658142</ele>
            </trkpt>
        </trkseg>
    </trk>
</gpx>
